Observation data for Sierra Blanca on 07/11/2018      Previous  Date       Current Mesonet Observations  Soil Data  Daily Summary Page  Observations in Plain Language
KSB1 110501Z 21008KT 20/17 A3023 RMK A01 T02010165  RH  080%=      5-min Rain = 0
KSB1 110502Z 21009KT 20/16 A3023 RMK A01 T02010164  RH  080%=      5-min Rain = 0
KSB1 110503Z 21008KT 20/16 A3023 RMK A01 T02000164  RH  079%=      5-min Rain = 0
KSB1 110504Z 21008KT 20/16 A3023 RMK A01 T02010164  RH  080%=      5-min Rain = 0
KSB1 110505Z 21009KT 20/17 A3023 RMK A01 T02010165  RH  080%=      5-min Rain = 0
KSB1 110506Z 21009KT 20/17 A3023 RMK A01 T02000165  RH  080%=      5-min Rain = 0
KSB1 110507Z 21008KT 20/17 A3023 RMK A01 T02010165  RH  080%=      5-min Rain = 0
KSB1 110508Z 21008KT 20/17 A3023 RMK A01 T02010165  RH  080%=      5-min Rain = 0
KSB1 110509Z 21007KT 20/16 A3023 RMK A01 T02010164  RH  080%=      5-min Rain = 0
KSB1 110510Z 21008KT 20/17 A3023 RMK A01 T02010165  RH  080%=      5-min Rain = 0
KSB1 110511Z 21008KT 20/16 A3023 RMK A01 T02010164  RH  079%=      5-min Rain = 0
KSB1 110512Z 21007KT 20/16 A3023 RMK A01 T02010163  RH  079%=      5-min Rain = 0
KSB1 110513Z 21007KT 20/16 A3023 RMK A01 T02010164  RH  079%=      5-min Rain = 0
KSB1 110514Z 21007KT 20/16 A3023 RMK A01 T02000164  RH  080%=      5-min Rain = 0
KSB1 110515Z 21007KT 20/16 A3023 RMK A01 T02000164  RH  080%=      5-min Rain = 0
KSB1 110516Z 21007KT 20/16 A3023 RMK A01 T02000164  RH  080%=      5-min Rain = 0
KSB1 110517Z 21006KT 20/16 A3023 RMK A01 T02000163  RH  079%=      5-min Rain = 0
KSB1 110518Z 20005KT 20/16 A3023 RMK A01 T02010163  RH  079%=      5-min Rain = 0
KSB1 110519Z 20005KT 20/16 A3023 RMK A01 T02010163  RH  079%=      5-min Rain = 0
KSB1 110520Z 20005KT 20/16 A3023 RMK A01 T02010164  RH  079%=      5-min Rain = 0
KSB1 110521Z 20005KT 20/16 A3023 RMK A01 T02000164  RH  080%=      5-min Rain = 0
KSB1 110522Z 20006KT 20/16 A3023 RMK A01 T02000164  RH  080%=      5-min Rain = 0
KSB1 110523Z 21006KT 20/16 A3023 RMK A01 T02000164  RH  079%=      5-min Rain = 0
KSB1 110524Z 21007KT 20/16 A3023 RMK A01 T02000164  RH  079%=      5-min Rain = 0
KSB1 110525Z 22007KT 20/16 A3023 RMK A01 T02000164  RH  080%=      5-min Rain = 0
KSB1 110526Z 22007KT 20/16 A3023 RMK A01 T01990164  RH  080%=      5-min Rain = 0
KSB1 110527Z 21007KT 20/16 A3023 RMK A01 T01980164  RH  081%=      5-min Rain = 0
KSB1 110528Z 21007KT 20/16 A3023 RMK A01 T01980164  RH  081%=      5-min Rain = 0
KSB1 110529Z 21007KT 20/16 A3023 RMK A01 T01990164  RH  081%=      5-min Rain = 0
KSB1 110530Z 21007KT 20/16 A3023 RMK A01 T01980163  RH  080%=      5-min Rain = 0
KSB1 110531Z 20007KT 20/16 A3023 RMK A01 T01980162  RH  080%=      5-min Rain = 0
KSB1 110532Z 20006KT 20/16 A3023 RMK A01 T01980161  RH  079%=      5-min Rain = 0
KSB1 110533Z 20007KT 20/16 A3023 RMK A01 T01980160  RH  078%=      5-min Rain = 0
KSB1 110534Z 20007KT 20/16 A3023 RMK A01 T01990159  RH  078%=      5-min Rain = 0
KSB1 110535Z 20007KT 20/16 A3023 RMK A01 T01990159  RH  077%=      5-min Rain = 0
KSB1 110536Z 19007KT 20/16 A3023 RMK A01 T01990159  RH  077%=      5-min Rain = 0
KSB1 110537Z 19007KT 20/16 A3023 RMK A01 T01990159  RH  078%=      5-min Rain = 0
KSB1 110538Z 20007KT 20/16 A3023 RMK A01 T01990159  RH  078%=      5-min Rain = 0
KSB1 110539Z 20007KT 20/16 A3023 RMK A01 T01990158  RH  078%=      5-min Rain = 0
KSB1 110540Z 20007KT 20/16 A3023 RMK A01 T01990158  RH  077%=      5-min Rain = 0
KSB1 110541Z 20007KT 20/16 A3023 RMK A01 T01990158  RH  077%=      5-min Rain = 0
KSB1 110542Z 20007KT 20/16 A3023 RMK A01 T01990159  RH  078%=      5-min Rain = 0
KSB1 110543Z 20007KT 20/16 A3023 RMK A01 T01990158  RH  077%=      5-min Rain = 0
KSB1 110544Z 20007KT 20/16 A3023 RMK A01 T01980158  RH  078%=      5-min Rain = 0
KSB1 110545Z 20007KT 20/16 A3023 RMK A01 T01980159  RH  078%=      5-min Rain = 0
KSB1 110546Z 20007KT 20/16 A3023 RMK A01 T01970158  RH  078%=      5-min Rain = 0
KSB1 110547Z 19007KT 20/16 A3023 RMK A01 T01970159  RH  078%=      5-min Rain = 0
KSB1 110548Z 19008KT 20/16 A3023 RMK A01 T01970159  RH  079%=      5-min Rain = 0
KSB1 110549Z 18008KT 20/16 A3022 RMK A01 T01970159  RH  079%=      5-min Rain = 0
KSB1 110550Z 18008KT 20/16 A3022 RMK A01 T01960159  RH  079%=      5-min Rain = 0
KSB1 110551Z 18008KT 20/16 A3022 RMK A01 T01970159  RH  079%=      5-min Rain = 0
KSB1 110552Z 18008KT 20/16 A3022 RMK A01 T01960159  RH  079%=      5-min Rain = 0
KSB1 110553Z 18008KT 20/16 A3022 RMK A01 T01960159  RH  079%=      5-min Rain = 0
KSB1 110554Z 18008KT 20/16 A3022 RMK A01 T01960159  RH  079%=      5-min Rain = 0
KSB1 110555Z 18008KT 20/16 A3022 RMK A01 T01960159  RH  079%=      5-min Rain = 0
KSB1 110556Z 18008KT 20/16 A3022 RMK A01 T01960159  RH  080%=      5-min Rain = 0
KSB1 110557Z 18007KT 20/16 A3022 RMK A01 T01960159  RH  079%=      5-min Rain = 0
KSB1 110558Z 17008KT 20/16 A3022 RMK A01 T01960159  RH  080%=      5-min Rain = 0
KSB1 110559Z 18008KT 20/16 A3022 RMK A01 T01960159  RH  079%=      5-min Rain = 0
KSB1 110600Z 18008KT 20/16 A3022 RMK A01 T01950159  RH  079%=      5-min Rain = 0
KSB1 110601Z 18009KT 20/16 A3022 RMK A01 T01960159  RH  079%=      5-min Rain = 0
KSB1 110602Z 17009KT 20/16 A3022 RMK A01 T01960159  RH  079%=      5-min Rain = 0
KSB1 110603Z 17009KT 20/16 A3022 RMK A01 T01980158  RH  078%=      5-min Rain = 0
KSB1 110604Z 17010KT 20/16 A3022 RMK A01 T02020159  RH  076%=      5-min Rain = 0
KSB1 110605Z 17011KT 20/16 A3022 RMK A01 T02040158  RH  075%=      5-min Rain = 0
KSB1 110606Z 16009KT 21/16 A3022 RMK A01 T02060158  RH  074%=      5-min Rain = 0
KSB1 110607Z 17010KT 21/16 A3022 RMK A01 T02060158  RH  074%=      5-min Rain = 0
KSB1 110608Z 16009KT 21/16 A3022 RMK A01 T02060158  RH  074%=      5-min Rain = 0
KSB1 110609Z 17008KT 21/16 A3022 RMK A01 T02060158  RH  074%=      5-min Rain = 0
KSB1 110610Z 17010KT 21/16 A3022 RMK A01 T02060157  RH  074%=      5-min Rain = 0
KSB1 110611Z 17011KT 21/16 A3022 RMK A01 T02050157  RH  074%=      5-min Rain = 0
KSB1 110612Z 17010KT 21/16 A3022 RMK A01 T02060158  RH  074%=      5-min Rain = 0
KSB1 110613Z 17011KT 21/16 A3022 RMK A01 T02070157  RH  073%=      5-min Rain = 0
KSB1 110614Z 17010KT 21/16 A3022 RMK A01 T02080157  RH  072%=      5-min Rain = 0
KSB1 110615Z 17011KT 21/16 A3022 RMK A01 T02080156  RH  072%=      5-min Rain = 0
KSB1 110616Z 17010KT 21/16 A3022 RMK A01 T02090156  RH  072%=      5-min Rain = 0
KSB1 110617Z 17010KT 21/16 A3022 RMK A01 T02090156  RH  072%=      5-min Rain = 0
KSB1 110618Z 17010KT 21/16 A3022 RMK A01 T02080156  RH  072%=      5-min Rain = 0
KSB1 110619Z 18010KT 21/16 A3022 RMK A01 T02090155  RH  071%=      5-min Rain = 0
KSB1 110620Z 17009KT 21/16 A3022 RMK A01 T02090156  RH  071%=      5-min Rain = 0
KSB1 110621Z 17011KT 21/16 A3021 RMK A01 T02080155  RH  072%=      5-min Rain = 0
KSB1 110622Z 17010KT 21/16 A3021 RMK A01 T02090155  RH  071%=      5-min Rain = 0
KSB1 110623Z 16010KT 21/16 A3022 RMK A01 T02090156  RH  071%=      5-min Rain = 0
KSB1 110624Z 17011KT 21/16 A3022 RMK A01 T02090156  RH  072%=      5-min Rain = 0
KSB1 110625Z 17010KT 21/16 A3022 RMK A01 T02090157  RH  072%=      5-min Rain = 0
KSB1 110626Z 17010KT 21/16 A3022 RMK A01 T02080157  RH  072%=      5-min Rain = 0
KSB1 110627Z 17012KT 21/16 A3022 RMK A01 T02080156  RH  072%=      5-min Rain = 0
KSB1 110628Z 17010KT 21/16 A3022 RMK A01 T02090156  RH  072%=      5-min Rain = 0
KSB1 110629Z 17009KT 21/16 A3022 RMK A01 T02090157  RH  072%=      5-min Rain = 0
KSB1 110630Z 17011KT 21/16 A3022 RMK A01 T02080157  RH  072%=      5-min Rain = 0
KSB1 110631Z 16011KT 21/16 A3022 RMK A01 T02080157  RH  072%=      5-min Rain = 0
KSB1 110632Z 18010KT 21/16 A3022 RMK A01 T02080157  RH  072%=      5-min Rain = 0
KSB1 110633Z 18010KT 21/16 A3022 RMK A01 T02080157  RH  072%=      5-min Rain = 0
KSB1 110634Z 18008KT 21/16 A3022 RMK A01 T02080156  RH  072%=      5-min Rain = 0
KSB1 110635Z 18008KT 21/16 A3022 RMK A01 T02070158  RH  073%=      5-min Rain = 0
KSB1 110636Z 17010KT 21/16 A3022 RMK A01 T02050158  RH  074%=      5-min Rain = 0
KSB1 110637Z 17011KT 20/16 A3021 RMK A01 T02040158  RH  075%=      5-min Rain = 0
KSB1 110638Z 18010KT 21/16 A3021 RMK A01 T02050158  RH  074%=      5-min Rain = 0
KSB1 110639Z 17009KT 21/16 A3021 RMK A01 T02060158  RH  074%=      5-min Rain = 0
KSB1 110640Z 17011KT 21/16 A3021 RMK A01 T02050159  RH  075%=      5-min Rain = 0
KSB1 110641Z 18010KT 21/16 A3021 RMK A01 T02050158  RH  074%=      5-min Rain = 0
KSB1 110642Z 17010KT 21/16 A3021 RMK A01 T02060157  RH  074%=      5-min Rain = 0
KSB1 110643Z 17009KT 21/16 A3021 RMK A01 T02070158  RH  073%=      5-min Rain = 0
KSB1 110644Z 17008KT 21/16 A3021 RMK A01 T02060159  RH  074%=      5-min Rain = 0
KSB1 110645Z 16009KT 20/16 A3021 RMK A01 T02040159  RH  075%=      5-min Rain = 0
KSB1 110646Z 16009KT 20/16 A3021 RMK A01 T02030158  RH  075%=      5-min Rain = 0
KSB1 110647Z 16009KT 20/16 A3021 RMK A01 T02030158  RH  075%=      5-min Rain = 0
KSB1 110648Z 16009KT 20/16 A3021 RMK A01 T02030158  RH  075%=      5-min Rain = 0
KSB1 110649Z 16009KT 20/16 A3021 RMK A01 T02030158  RH  075%=      5-min Rain = 0
KSB1 110650Z 16008KT 20/16 A3021 RMK A01 T02030159  RH  075%=      5-min Rain = 0
KSB1 110651Z 16009KT 20/16 A3021 RMK A01 T02030158  RH  075%=      5-min Rain = 0
KSB1 110652Z 17010KT 20/16 A3021 RMK A01 T02030158  RH  075%=      5-min Rain = 0
KSB1 110653Z 17009KT 20/16 A3021 RMK A01 T02030157  RH  075%=      5-min Rain = 0
KSB1 110654Z 17009KT 20/16 A3021 RMK A01 T02040157  RH  074%=      5-min Rain = 0
KSB1 110655Z 17008KT 20/16 A3021 RMK A01 T02040157  RH  074%=      5-min Rain = 0
KSB1 110656Z 16009KT 20/16 A3021 RMK A01 T02030158  RH  075%=      5-min Rain = 0
KSB1 110657Z 16008KT 20/16 A3021 RMK A01 T02020158  RH  076%=      5-min Rain = 0
KSB1 110658Z 16008KT 20/16 A3021 RMK A01 T02010158  RH  076%=      5-min Rain = 0
KSB1 110659Z 16008KT 20/16 A3021 RMK A01 T02010158  RH  077%=      5-min Rain = 0
KSB1 110700Z 17008KT 20/16 A3021 RMK A01 T02000158  RH  077%=      5-min Rain = 0
KSB1 110701Z 17008KT 20/16 A3021 RMK A01 T02000158  RH  076%=      5-min Rain = 0
KSB1 110702Z 16007KT 20/16 A3021 RMK A01 T02000157  RH  076%=      5-min Rain = 0
KSB1 110703Z 16007KT 20/16 A3021 RMK A01 T02000158  RH  077%=      5-min Rain = 0
KSB1 110704Z 17008KT 20/16 A3021 RMK A01 T02000159  RH  077%=      5-min Rain = 0
KSB1 110705Z 17008KT 20/16 A3021 RMK A01 T01990158  RH  077%=      5-min Rain = 0
KSB1 110706Z 17007KT 20/16 A3021 RMK A01 T01990156  RH  076%=      5-min Rain = 0
KSB1 110707Z 17006KT 20/16 A3021 RMK A01 T02000157  RH  076%=      5-min Rain = 0
KSB1 110708Z 17005KT 20/16 A3021 RMK A01 T02010158  RH  076%=      5-min Rain = 0
KSB1 110709Z 17004KT 20/16 A3021 RMK A01 T02000159  RH  077%=      5-min Rain = 0
KSB1 110710Z 16004KT 20/16 A3021 RMK A01 T01980160  RH  079%=      5-min Rain = 0
KSB1 110711Z 16004KT 20/16 A3021 RMK A01 T01970160  RH  080%=      5-min Rain = 0
KSB1 110712Z 16005KT 20/16 A3021 RMK A01 T01960160  RH  080%=      5-min Rain = 0
KSB1 110713Z 16005KT 20/16 A3021 RMK A01 T01950160  RH  080%=      5-min Rain = 0
KSB1 110714Z 16004KT 19/16 A3021 RMK A01 T01940159  RH  080%=      5-min Rain = 0
KSB1 110715Z 18003KT 20/16 A3021 RMK A01 T01950160  RH  080%=      5-min Rain = 0
KSB1 110716Z 17003KT 19/16 A3021 RMK A01 T01940160  RH  081%=      5-min Rain = 0
KSB1 110717Z 15003KT 20/16 A3021 RMK A01 T01950160  RH  081%=      5-min Rain = 0
KSB1 110718Z 15004KT 19/16 A3021 RMK A01 T01940159  RH  080%=      5-min Rain = 0
KSB1 110719Z 15005KT 19/16 A3021 RMK A01 T01940156  RH  079%=      5-min Rain = 0
KSB1 110720Z 16006KT 20/15 A3021 RMK A01 T01950154  RH  077%=      5-min Rain = 0
KSB1 110721Z 16005KT 20/16 A3021 RMK A01 T01960156  RH  077%=      5-min Rain = 0
KSB1 110722Z 15003KT 20/16 A3021 RMK A01 T01970156  RH  077%=      5-min Rain = 0
KSB1 110723Z 14003KT 20/16 A3021 RMK A01 T01970155  RH  077%=      5-min Rain = 0
KSB1 110724Z 16004KT 20/16 A3021 RMK A01 T01970156  RH  077%=      5-min Rain = 0
KSB1 110725Z 16003KT 20/16 A3021 RMK A01 T01970155  RH  077%=      5-min Rain = 0
KSB1 110726Z 10002KT 20/16 A3021 RMK A01 T01970155  RH  076%=      5-min Rain = 0
KSB1 110727Z 30001KT 20/16 A3021 RMK A01 T01980157  RH  077%=      5-min Rain = 0
KSB1 110728Z 06002KT 20/16 A3021 RMK A01 T01980158  RH  078%=      5-min Rain = 0
KSB1 110729Z 04001KT 20/16 A3021 RMK A01 T01970160  RH  079%=      5-min Rain = 0
KSB1 110730Z 36004KT 20/16 A3021 RMK A01 T01960160  RH  079%=      5-min Rain = 0
KSB1 110731Z 01003KT 20/16 A3021 RMK A01 T01950157  RH  079%=      5-min Rain = 0
KSB1 110732Z 02001KT 20/16 A3021 RMK A01 T01950156  RH  078%=      5-min Rain = 0
KSB1 110733Z 02001KT 20/16 A3021 RMK A01 T01960157  RH  078%=      5-min Rain = 0
KSB1 110734Z 02002KT 20/16 A3021 RMK A01 T01960159  RH  079%=      5-min Rain = 0
KSB1 110735Z 01002KT 20/16 A3021 RMK A01 T01960160  RH  080%=      5-min Rain = 0
KSB1 110736Z 36003KT 20/16 A3021 RMK A01 T01950160  RH  080%=      5-min Rain = 0
KSB1 110737Z 00003KT 20/16 A3021 RMK A01 T01950161  RH  081%=      5-min Rain = 0
KSB1 110738Z 36002KT 19/16 A3021 RMK A01 T01940161  RH  081%=      5-min Rain = 0
KSB1 110739Z 00003KT 19/16 A3021 RMK A01 T01930161  RH  082%=      5-min Rain = 0
KSB1 110740Z 00002KT 19/16 A3021 RMK A01 T01930162  RH  082%=      5-min Rain = 0
KSB1 110741Z 00001KT 19/16 A3021 RMK A01 T01920161  RH  082%=      5-min Rain = 0
KSB1 110742Z 01000KT 19/16 A3021 RMK A01 T01920162  RH  082%=      5-min Rain = 0
KSB1 110743Z 00000KT 19/16 A3021 RMK A01 T01920161  RH  082%=      5-min Rain = 0
KSB1 110744Z 00000KT 19/16 A3021 RMK A01 T01920161  RH  082%=      5-min Rain = 0
KSB1 110745Z 00000KT 19/16 A3021 RMK A01 T01920162  RH  083%=      5-min Rain = 0
KSB1 110746Z 00000KT 19/16 A3021 RMK A01 T01920162  RH  083%=      5-min Rain = 0
KSB1 110747Z 14000KT 19/16 A3021 RMK A01 T01920162  RH  083%=      5-min Rain = 0
KSB1 110748Z 13002KT 19/16 A3021 RMK A01 T01910162  RH  083%=      5-min Rain = 0
KSB1 110749Z 09001KT 19/16 A3021 RMK A01 T01910162  RH  083%=      5-min Rain = 0
KSB1 110750Z 07001KT 19/16 A3021 RMK A01 T01900162  RH  084%=      5-min Rain = 0
KSB1 110751Z 08001KT 19/16 A3021 RMK A01 T01900162  RH  084%=      5-min Rain = 0
KSB1 110752Z 08001KT 19/16 A3021 RMK A01 T01900162  RH  084%=      5-min Rain = 0
KSB1 110753Z 08002KT 19/16 A3021 RMK A01 T01890163  RH  084%=      5-min Rain = 0
KSB1 110754Z 07003KT 19/16 A3021 RMK A01 T01890163  RH  085%=      5-min Rain = 0
KSB1 110755Z 07002KT 19/16 A3021 RMK A01 T01890163  RH  085%=      5-min Rain = 0
KSB1 110756Z 07002KT 19/16 A3021 RMK A01 T01890163  RH  085%=      5-min Rain = 0
KSB1 110757Z 08003KT 19/16 A3021 RMK A01 T01890163  RH  085%=      5-min Rain = 0
KSB1 110758Z 09003KT 19/16 A3021 RMK A01 T01890164  RH  085%=      5-min Rain = 0
KSB1 110759Z 08003KT 19/16 A3021 RMK A01 T01890164  RH  085%=      5-min Rain = 0
KSB1 110800Z 07003KT 19/16 A3021 RMK A01 T01880163  RH  085%=      5-min Rain = 0
KSB1 110801Z 08002KT 19/16 A3021 RMK A01 T01880162  RH  085%=      5-min Rain = 0
KSB1 110802Z 08002KT 19/16 A3021 RMK A01 T01880162  RH  085%=      5-min Rain = 0
KSB1 110803Z 08002KT 19/16 A3021 RMK A01 T01880162  RH  085%=      5-min Rain = 0
KSB1 110804Z 08002KT 19/16 A3021 RMK A01 T01880163  RH  085%=      5-min Rain = 0
KSB1 110805Z 09002KT 19/16 A3021 RMK A01 T01880163  RH  085%=      5-min Rain = 0
KSB1 110806Z 09002KT 19/16 A3021 RMK A01 T01880162  RH  085%=      5-min Rain = 0
KSB1 110807Z 09002KT 19/16 A3021 RMK A01 T01880162  RH  085%=      5-min Rain = 0
KSB1 110808Z 09001KT 19/16 A3021 RMK A01 T01880162  RH  085%=      5-min Rain = 0
KSB1 110809Z 09001KT 19/16 A3021 RMK A01 T01880162  RH  085%=      5-min Rain = 0
KSB1 110810Z 00000KT 19/16 A3021 RMK A01 T01880162  RH  085%=      5-min Rain = 0
KSB1 110811Z 00000KT 19/16 A3021 RMK A01 T01880162  RH  085%=      5-min Rain = 0
KSB1 110812Z 09000KT 19/16 A3021 RMK A01 T01880162  RH  085%=      5-min Rain = 0
KSB1 110813Z 09001KT 19/16 A3021 RMK A01 T01880162  RH  084%=      5-min Rain = 0
KSB1 110814Z 09001KT 19/16 A3021 RMK A01 T01880162  RH  085%=      5-min Rain = 0
KSB1 110815Z 09001KT 19/16 A3021 RMK A01 T01880162  RH  085%=      5-min Rain = 0
KSB1 110816Z 06001KT 19/16 A3021 RMK A01 T01880162  RH  085%=      5-min Rain = 0
KSB1 110817Z 02001KT 19/16 A3021 RMK A01 T01880162  RH  085%=      5-min Rain = 0
KSB1 110818Z 36002KT 19/16 A3021 RMK A01 T01880163  RH  085%=      5-min Rain = 0
KSB1 110819Z 35002KT 19/16 A3021 RMK A01 T01880164  RH  086%=      5-min Rain = 0
KSB1 110820Z 35002KT 19/17 A3021 RMK A01 T01880165  RH  086%=      5-min Rain = 0
KSB1 110821Z 01002KT 19/17 A3021 RMK A01 T01880165  RH  086%=      5-min Rain = 0
KSB1 110822Z 02002KT 19/16 A3021 RMK A01 T01880164  RH  086%=      5-min Rain = 0
KSB1 110823Z 02002KT 19/16 A3021 RMK A01 T01880164  RH  086%=      5-min Rain = 0
KSB1 110824Z 02002KT 19/17 A3021 RMK A01 T01880165  RH  086%=      5-min Rain = 0
KSB1 110825Z 02002KT 19/16 A3021 RMK A01 T01880164  RH  086%=      5-min Rain = 0
KSB1 110826Z 02002KT 19/16 A3021 RMK A01 T01880164  RH  086%=      5-min Rain = 0
KSB1 110827Z 02002KT 19/16 A3021 RMK A01 T01880164  RH  086%=      5-min Rain = 0
KSB1 110828Z 03001KT 19/17 A3021 RMK A01 T01880165  RH  086%=      5-min Rain = 0
KSB1 110829Z 03001KT 19/16 A3021 RMK A01 T01880164  RH  086%=      5-min Rain = 0
KSB1 110830Z 03002KT 19/16 A3021 RMK A01 T01880164  RH  086%=      5-min Rain = 0
KSB1 110831Z 03001KT 19/16 A3021 RMK A01 T01880164  RH  086%=      5-min Rain = 0
KSB1 110832Z 03001KT 19/16 A3021 RMK A01 T01880164  RH  086%=      5-min Rain = 0
KSB1 110833Z 02002KT 19/16 A3021 RMK A01 T01880164  RH  086%=      5-min Rain = 0
KSB1 110834Z 02002KT 19/16 A3021 RMK A01 T01880164  RH  086%=      5-min Rain = 0
KSB1 110835Z 02002KT 19/16 A3021 RMK A01 T01880164  RH  086%=      5-min Rain = 0
KSB1 110836Z 02002KT 19/16 A3021 RMK A01 T01880163  RH  085%=      5-min Rain = 0
KSB1 110837Z 02002KT 19/16 A3021 RMK A01 T01880164  RH  085%=      5-min Rain = 0
KSB1 110838Z 02002KT 19/16 A3021 RMK A01 T01880163  RH  085%=      5-min Rain = 0
KSB1 110839Z 02002KT 19/16 A3021 RMK A01 T01880163  RH  085%=      5-min Rain = 0
KSB1 110840Z 02002KT 19/16 A3021 RMK A01 T01880164  RH  086%=      5-min Rain = 0
KSB1 110841Z 02002KT 19/16 A3021 RMK A01 T01880164  RH  086%=      5-min Rain = 0
KSB1 110842Z 02002KT 19/16 A3021 RMK A01 T01880164  RH  086%=      5-min Rain = 0
KSB1 110843Z 02002KT 19/16 A302 RMK A01 T01880164  RH  086%=      5-min Rain = 0
KSB1 110844Z 01002KT 19/16 A302 RMK A01 T01880164  RH  086%=      5-min Rain = 0
KSB1 110845Z 01002KT 19/16 A302 RMK A01 T01880164  RH  086%=      5-min Rain = 0
KSB1 110846Z 01002KT 19/16 A302 RMK A01 T01880164  RH  086%=      5-min Rain = 0
KSB1 110847Z 00002KT 19/17 A302 RMK A01 T01880165  RH  086%=      5-min Rain = 0
KSB1 110848Z 00002KT 19/16 A302 RMK A01 T01880164  RH  086%=      5-min Rain = 0
KSB1 110849Z 35002KT 19/16 A302 RMK A01 T01880164  RH  086%=      5-min Rain = 0
KSB1 110850Z 35002KT 19/16 A302 RMK A01 T01880163  RH  086%=      5-min Rain = 0
KSB1 110851Z 34003KT 19/16 A302 RMK A01 T01880162  RH  085%=      5-min Rain = 0
KSB1 110852Z 34003KT 19/16 A302 RMK A01 T01880162  RH  085%=      5-min Rain = 0
KSB1 110853Z 34003KT 19/16 A302 RMK A01 T01880162  RH  085%=      5-min Rain = 0
KSB1 110854Z 34004KT 19/16 A302 RMK A01 T01880162  RH  085%=      5-min Rain = 0
KSB1 110855Z 34004KT 19/16 A302 RMK A01 T01890162  RH  085%=      5-min Rain = 0
KSB1 110856Z 34004KT 19/16 A302 RMK A01 T01890162  RH  084%=      5-min Rain = 0
KSB1 110857Z 34004KT 19/16 A302 RMK A01 T01890162  RH  084%=      5-min Rain = 0
KSB1 110858Z 34004KT 19/16 A302 RMK A01 T01890163  RH  085%=      5-min Rain = 0
KSB1 110859Z 34004KT 19/16 A3021 RMK A01 T01890163  RH  085%=      5-min Rain = 0
KSB1 110900Z 34005KT 19/16 A3021 RMK A01 T01900164  RH  085%=      5-min Rain = 0
KSB1 110901Z 34005KT 19/17 A3021 RMK A01 T01900165  RH  086%=      5-min Rain = 0
KSB1 110902Z 34005KT 19/17 A3021 RMK A01 T01900165  RH  086%=      5-min Rain = 0
KSB1 110903Z 34005KT 19/17 A3021 RMK A01 T01900166  RH  086%=      5-min Rain = 0
KSB1 110904Z 34004KT 19/17 A3021 RMK A01 T01900166  RH  086%=      5-min Rain = 0
KSB1 110905Z 34004KT 19/17 A3021 RMK A01 T01890166  RH  086%=      5-min Rain = 0
KSB1 110906Z 34004KT 19/17 A3021 RMK A01 T01900166  RH  086%=      5-min Rain = 0
KSB1 110907Z 34004KT 19/17 A3021 RMK A01 T01900166  RH  086%=      5-min Rain = 0
KSB1 110908Z 34004KT 19/17 A3021 RMK A01 T01900165  RH  086%=      5-min Rain = 0
KSB1 110909Z 34004KT 19/17 A3021 RMK A01 T01900165  RH  086%=      5-min Rain = 0
KSB1 110910Z 34004KT 19/17 A3021 RMK A01 T01900165  RH  086%=      5-min Rain = 0
KSB1 110911Z 34004KT 19/17 A3021 RMK A01 T01900165  RH  086%=      5-min Rain = 0
KSB1 110912Z 34004KT 19/17 A3021 RMK A01 T01900165  RH  085%=      5-min Rain = 0
KSB1 110913Z 35004KT 19/16 A3021 RMK A01 T01900164  RH  085%=      5-min Rain = 0
KSB1 110914Z 35004KT 19/16 A3021 RMK A01 T01900164  RH  085%=      5-min Rain = 0
KSB1 110915Z 35004KT 19/16 A3021 RMK A01 T01900164  RH  085%=      5-min Rain = 0
KSB1 110916Z 35003KT 19/16 A3021 RMK A01 T01900163  RH  085%=      5-min Rain = 0
KSB1 110917Z 35003KT 19/16 A3021 RMK A01 T01900164  RH  085%=      5-min Rain = 0
KSB1 110918Z 35003KT 19/16 A3021 RMK A01 T01900163  RH  084%=      5-min Rain = 0
KSB1 110919Z 35003KT 19/16 A3021 RMK A01 T01910164  RH  084%=      5-min Rain = 0
KSB1 110920Z 35003KT 19/16 A3021 RMK A01 T01900163  RH  084%=      5-min Rain = 0
KSB1 110921Z 35003KT 19/16 A3021 RMK A01 T01900162  RH  084%=      5-min Rain = 0
KSB1 110922Z 35003KT 19/16 A3021 RMK A01 T01910163  RH  084%=      5-min Rain = 0
KSB1 110923Z 35003KT 19/16 A3021 RMK A01 T01910164  RH  084%=      5-min Rain = 0
KSB1 110924Z 35003KT 19/16 A3021 RMK A01 T01910164  RH  084%=      5-min Rain = 0
KSB1 110925Z 35003KT 19/16 A3021 RMK A01 T01910164  RH  084%=      5-min Rain = 0
KSB1 110926Z 35003KT 19/16 A3021 RMK A01 T01910164  RH  084%=      5-min Rain = 0
KSB1 110927Z 35003KT 19/16 A3021 RMK A01 T01910164  RH  084%=      5-min Rain = 0
KSB1 110928Z 35003KT 19/16 A3021 RMK A01 T01910164  RH  084%=      5-min Rain = 0
KSB1 110929Z 34003KT 19/16 A3021 RMK A01 T01910164  RH  084%=      5-min Rain = 0
KSB1 110930Z 34003KT 19/17 A3021 RMK A01 T01910165  RH  085%=      5-min Rain = 0
KSB1 110931Z 34003KT 19/17 A3021 RMK A01 T01910166  RH  085%=      5-min Rain = 0
KSB1 110932Z 34003KT 19/17 A3021 RMK A01 T01910166  RH  085%=      5-min Rain = 0
KSB1 110933Z 34004KT 19/17 A3021 RMK A01 T01900165  RH  085%=      5-min Rain = 0
KSB1 110934Z 34004KT 19/16 A3021 RMK A01 T01900164  RH  085%=      5-min Rain = 0
KSB1 110935Z 34003KT 19/16 A3021 RMK A01 T01900162  RH  084%=      5-min Rain = 0
KSB1 110936Z 34003KT 19/16 A3021 RMK A01 T01910162  RH  083%=      5-min Rain = 0
KSB1 110937Z 34003KT 19/16 A3021 RMK A01 T01910161  RH  083%=      5-min Rain = 0
KSB1 110938Z 34003KT 19/16 A3021 RMK A01 T01920161  RH  082%=      5-min Rain = 0
KSB1 110939Z 35003KT 19/16 A3021 RMK A01 T01920160  RH  082%=      5-min Rain = 0
KSB1 110940Z 35003KT 19/16 A3021 RMK A01 T01920160  RH  081%=      5-min Rain = 0
KSB1 110941Z 36003KT 19/16 A3021 RMK A01 T01930160  RH  081%=      5-min Rain = 0
KSB1 110942Z 00002KT 19/16 A302 RMK A01 T01930160  RH  081%=      5-min Rain = 0
KSB1 110943Z 00002KT 19/16 A302 RMK A01 T01930160  RH  081%=      5-min Rain = 0
KSB1 110944Z 00001KT 19/16 A302 RMK A01 T01930160  RH  082%=      5-min Rain = 0
KSB1 110945Z 00001KT 19/16 A302 RMK A01 T01930160  RH  081%=      5-min Rain = 0
KSB1 110946Z 35001KT 19/16 A302 RMK A01 T01930159  RH  081%=      5-min Rain = 0
KSB1 110947Z 35001KT 19/16 A302 RMK A01 T01930160  RH  081%=      5-min Rain = 0
KSB1 110948Z 36001KT 19/16 A302 RMK A01 T01930160  RH  081%=      5-min Rain = 0
KSB1 110949Z 01001KT 19/16 A302 RMK A01 T01930159  RH  081%=      5-min Rain = 0
KSB1 110950Z 02001KT 19/16 A302 RMK A01 T01930160  RH  081%=      5-min Rain = 0
KSB1 110951Z 03001KT 19/16 A302 RMK A01 T01930160  RH  081%=      5-min Rain = 0
KSB1 110952Z 04002KT 19/16 A302 RMK A01 T01930161  RH  082%=      5-min Rain = 0
KSB1 110953Z 05002KT 19/16 A302 RMK A01 T01930161  RH  082%=      5-min Rain = 0
KSB1 110954Z 06002KT 19/16 A302 RMK A01 T01930162  RH  082%=      5-min Rain = 0
KSB1 110955Z 06002KT 19/16 A302 RMK A01 T01930163  RH  083%=      5-min Rain = 0
KSB1 110956Z 07002KT 19/16 A302 RMK A01 T01920164  RH  084%=      5-min Rain = 0
KSB1 110957Z 07002KT 19/16 A302 RMK A01 T01920164  RH  084%=      5-min Rain = 0
KSB1 110958Z 07001KT 19/16 A302 RMK A01 T01910164  RH  084%=      5-min Rain = 0
KSB1 110959Z 07001KT 19/16 A302 RMK A01 T01910164  RH  084%=      5-min Rain = 0
KSB1 111000Z 07001KT 19/16 A302 RMK A01 T01900163  RH  084%=      5-min Rain = 0
KSB1 111001Z 07001KT 19/16 A302 RMK A01 T01900163  RH  084%=      5-min Rain = 0
KSB1 111002Z 07002KT 19/16 A302 RMK A01 T01900163  RH  084%=      5-min Rain = 0
KSB1 111003Z 07002KT 19/16 A302 RMK A01 T01900163  RH  084%=      5-min Rain = 0
KSB1 111004Z 07002KT 19/16 A302 RMK A01 T01900163  RH  084%=      5-min Rain = 0
KSB1 111005Z 06002KT 19/16 A302 RMK A01 T01890164  RH  085%=      5-min Rain = 0
KSB1 111006Z 05002KT 19/17 A302 RMK A01 T01890165  RH  086%=      5-min Rain = 0
KSB1 111007Z 05003KT 19/17 A302 RMK A01 T01890165  RH  086%=      5-min Rain = 0
KSB1 111008Z 04002KT 19/17 A302 RMK A01 T01890166  RH  087%=      5-min Rain = 0
KSB1 111009Z 04002KT 19/17 A302 RMK A01 T01880166  RH  087%=      5-min Rain = 0
KSB1 111010Z 04002KT 19/17 A302 RMK A01 T01880165  RH  087%=      5-min Rain = 0
KSB1 111011Z 04002KT 19/17 A302 RMK A01 T01880165  RH  087%=      5-min Rain = 0
KSB1 111012Z 03002KT 19/16 A302 RMK A01 T01880164  RH  086%=      5-min Rain = 0
KSB1 111013Z 03002KT 19/16 A302 RMK A01 T01880164  RH  086%=      5-min Rain = 0
KSB1 111014Z 03002KT 19/16 A302 RMK A01 T01880164  RH  086%=      5-min Rain = 0
KSB1 111015Z 03002KT 19/16 A302 RMK A01 T01880163  RH  086%=      5-min Rain = 0
KSB1 111016Z 03002KT 19/16 A302 RMK A01 T01880164  RH  086%=      5-min Rain = 0
KSB1 111017Z 02002KT 19/16 A302 RMK A01 T01880164  RH  086%=      5-min Rain = 0
KSB1 111018Z 02002KT 19/16 A302 RMK A01 T01880164  RH  086%=      5-min Rain = 0
KSB1 111019Z 02002KT 19/16 A302 RMK A01 T01880164  RH  085%=      5-min Rain = 0
KSB1 111020Z 03002KT 19/16 A302 RMK A01 T01880163  RH  086%=      5-min Rain = 0
KSB1 111021Z 03003KT 19/16 A302 RMK A01 T01880163  RH  085%=      5-min Rain = 0
KSB1 111022Z 02003KT 19/16 A302 RMK A01 T01880163  RH  085%=      5-min Rain = 0
KSB1 111023Z 01003KT 19/16 A302 RMK A01 T01890163  RH  085%=      5-min Rain = 0
KSB1 111024Z 01003KT 19/16 A302 RMK A01 T01890164  RH  085%=      5-min Rain = 0
KSB1 111025Z 00003KT 19/16 A302 RMK A01 T01880163  RH  085%=      5-min Rain = 0
KSB1 111026Z 00003KT 19/16 A302 RMK A01 T01890164  RH  085%=      5-min Rain = 0
KSB1 111027Z 00003KT 19/16 A302 RMK A01 T01890164  RH  085%=      5-min Rain = 0
KSB1 111028Z 00002KT 19/16 A302 RMK A01 T01890163  RH  085%=      5-min Rain = 0
KSB1 111029Z 00002KT 19/16 A302 RMK A01 T01890164  RH  085%=      5-min Rain = 0
KSB1 111030Z 01002KT 19/16 A302 RMK A01 T01890164  RH  085%=      5-min Rain = 0
KSB1 111031Z 00002KT 19/16 A3019 RMK A01 T01890164  RH  085%=      5-min Rain = 0
KSB1 111032Z 36002KT 19/16 A302 RMK A01 T01900164  RH  085%=      5-min Rain = 0
KSB1 111033Z 35003KT 19/16 A302 RMK A01 T01900163  RH  085%=      5-min Rain = 0
KSB1 111034Z 35003KT 19/16 A302 RMK A01 T01900162  RH  084%=      5-min Rain = 0
KSB1 111035Z 34003KT 19/16 A302 RMK A01 T01900161  RH  084%=      5-min Rain = 0
KSB1 111036Z 34004KT 19/16 A302 RMK A01 T01900160  RH  083%=      5-min Rain = 0
KSB1 111037Z 34004KT 19/16 A302 RMK A01 T01900161  RH  083%=      5-min Rain = 0
KSB1 111038Z 34004KT 19/16 A302 RMK A01 T01900162  RH  083%=      5-min Rain = 0
KSB1 111039Z 34004KT 19/16 A302 RMK A01 T01910162  RH  084%=      5-min Rain = 0
KSB1 111040Z 34004KT 19/16 A302 RMK A01 T01910163  RH  084%=      5-min Rain = 0
KSB1 111041Z 34004KT 19/16 A302 RMK A01 T01910163  RH  084%=      5-min Rain = 0
KSB1 111042Z 34003KT 19/16 A302 RMK A01 T01910164  RH  084%=      5-min Rain = 0
KSB1 111043Z 34003KT 19/17 A302 RMK A01 T01910166  RH  085%=      5-min Rain = 0
KSB1 111044Z 34003KT 19/17 A302 RMK A01 T01910166  RH  085%=      5-min Rain = 0
KSB1 111045Z 34003KT 19/17 A302 RMK A01 T01910166  RH  086%=      5-min Rain = 0
KSB1 111046Z 33003KT 19/17 A302 RMK A01 T01900165  RH  085%=      5-min Rain = 0
KSB1 111047Z 34003KT 19/17 A3019 RMK A01 T01900166  RH  086%=      5-min Rain = 0
KSB1 111048Z 34002KT 19/17 A3019 RMK A01 T01900166  RH  086%=      5-min Rain = 0
KSB1 111049Z 34002KT 19/17 A3019 RMK A01 T01900166  RH  086%=      5-min Rain = 0
KSB1 111050Z 35002KT 19/17 A3019 RMK A01 T01900165  RH  086%=      5-min Rain = 0
KSB1 111051Z 35001KT 19/17 A3019 RMK A01 T01900165  RH  086%=      5-min Rain = 0
KSB1 111052Z 36001KT 19/17 A3019 RMK A01 T01900165  RH  086%=      5-min Rain = 0
KSB1 111053Z 00001KT 19/17 A3019 RMK A01 T01890165  RH  086%=      5-min Rain = 0
KSB1 111054Z 00001KT 19/17 A3019 RMK A01 T01890165  RH  086%=      5-min Rain = 0
KSB1 111055Z 00001KT 19/17 A3019 RMK A01 T01890165  RH  086%=      5-min Rain = 0
KSB1 111056Z 00001KT 19/16 A3019 RMK A01 T01890164  RH  086%=      5-min Rain = 0
KSB1 111057Z 00001KT 19/16 A302 RMK A01 T01890164  RH  085%=      5-min Rain = 0
KSB1 111058Z 00000KT 19/16 A302 RMK A01 T01890163  RH  085%=      5-min Rain = 0
KSB1 111059Z 00000KT 19/16 A302 RMK A01 T01890163  RH  085%=      5-min Rain = 0
KSB1 111100Z 00000KT 19/16 A302 RMK A01 T01890163  RH  085%=      5-min Rain = 0
KSB1 111101Z 00000KT 19/17 A302 RMK A01 T01890166  RH  087%=      5-min Rain = 0
KSB1 111102Z 00000KT 19/17 A302 RMK A01 T01880166  RH  087%=      5-min Rain = 0
KSB1 111103Z 00000KT 19/17 A302 RMK A01 T01870165  RH  087%=      5-min Rain = 0
KSB1 111104Z 00000KT 19/17 A302 RMK A01 T01870165  RH  087%=      5-min Rain = 0
KSB1 111105Z 00000KT 19/17 A302 RMK A01 T01870165  RH  087%=      5-min Rain = 0
KSB1 111106Z 00000KT 19/17 A302 RMK A01 T01870165  RH  087%=      5-min Rain = 0
KSB1 111107Z 00000KT 19/17 A302 RMK A01 T01860166  RH  088%=      5-min Rain = 0
KSB1 111108Z 00000KT 19/17 A302 RMK A01 T01860165  RH  088%=      5-min Rain = 0
KSB1 111109Z 00000KT 19/17 A302 RMK A01 T01860166  RH  088%=      5-min Rain = 0
KSB1 111110Z 00000KT 19/17 A302 RMK A01 T01850165  RH  088%=      5-min Rain = 0
KSB1 111111Z 00000KT 19/17 A302 RMK A01 T01860165  RH  088%=      5-min Rain = 0
KSB1 111112Z 00000KT 19/17 A302 RMK A01 T01850165  RH  088%=      5-min Rain = 0
KSB1 111113Z 00000KT 19/16 A302 RMK A01 T01860164  RH  087%=      5-min Rain = 0
KSB1 111114Z 00000KT 19/17 A302 RMK A01 T01860165  RH  087%=      5-min Rain = 0
KSB1 111115Z 00000KT 19/17 A302 RMK A01 T01860165  RH  087%=      5-min Rain = 0
KSB1 111116Z 00000KT 19/16 A302 RMK A01 T01860164  RH  087%=      5-min Rain = 0
KSB1 111117Z 00000KT 19/16 A302 RMK A01 T01870164  RH  087%=      5-min Rain = 0
KSB1 111118Z 00000KT 19/16 A3019 RMK A01 T01870163  RH  086%=      5-min Rain = 0
KSB1 111119Z 00000KT 19/16 A3019 RMK A01 T01870164  RH  086%=      5-min Rain = 0
KSB1 111120Z 00000KT 19/17 A3019 RMK A01 T01880165  RH  086%=      5-min Rain = 0
KSB1 111121Z 00000KT 19/16 A3019 RMK A01 T01880164  RH  086%=      5-min Rain = 0
KSB1 111122Z 00000KT 19/16 A3019 RMK A01 T01880164  RH  086%=      5-min Rain = 0
KSB1 111123Z 00000KT 19/16 A3019 RMK A01 T01880164  RH  086%=      5-min Rain = 0
KSB1 111124Z 00000KT 19/16 A3019 RMK A01 T01880164  RH  086%=      5-min Rain = 0
KSB1 111125Z 00000KT 19/16 A3019 RMK A01 T01890164  RH  086%=      5-min Rain = 0
KSB1 111126Z 00000KT 19/17 A3019 RMK A01 T01890165  RH  086%=      5-min Rain = 0
KSB1 111127Z 00000KT 19/16 A302 RMK A01 T01890164  RH  085%=      5-min Rain = 0
KSB1 111128Z 00000KT 19/16 A302 RMK A01 T01890163  RH  085%=      5-min Rain = 0
KSB1 111129Z 00000KT 19/16 A302 RMK A01 T01900163  RH  085%=      5-min Rain = 0
KSB1 111130Z 00000KT 19/16 A302 RMK A01 T01900163  RH  085%=      5-min Rain = 0
KSB1 111131Z 00000KT 19/16 A302 RMK A01 T01900163  RH  084%=      5-min Rain = 0
KSB1 111132Z 00000KT 19/16 A302 RMK A01 T01900163  RH  084%=      5-min Rain = 0
KSB1 111133Z 00000KT 19/16 A302 RMK A01 T01900162  RH  084%=      5-min Rain = 0
KSB1 111134Z 00000KT 19/16 A302 RMK A01 T01910162  RH  083%=      5-min Rain = 0
KSB1 111135Z 00000KT 19/16 A302 RMK A01 T01910161  RH  083%=      5-min Rain = 0
KSB1 111136Z 00000KT 19/16 A302 RMK A01 T01920160  RH  082%=      5-min Rain = 0
KSB1 111137Z 00000KT 19/16 A302 RMK A01 T01920160  RH  081%=      5-min Rain = 0
KSB1 111138Z 00000KT 19/16 A302 RMK A01 T01930161  RH  082%=      5-min Rain = 0
KSB1 111139Z 00000KT 19/16 A302 RMK A01 T01940160  RH  081%=      5-min Rain = 0
KSB1 111140Z 00000KT 19/16 A302 RMK A01 T01940159  RH  080%=      5-min Rain = 0
KSB1 111141Z 00000KT 19/16 A302 RMK A01 T01940159  RH  080%=      5-min Rain = 0
KSB1 111142Z 00000KT 20/16 A302 RMK A01 T01950158  RH  079%=      5-min Rain = 0
KSB1 111143Z 00001KT 20/16 A302 RMK A01 T01950158  RH  079%=      5-min Rain = 0
KSB1 111144Z 00001KT 20/16 A302 RMK A01 T01960159  RH  079%=      5-min Rain = 0
KSB1 111145Z 00001KT 20/16 A302 RMK A01 T01960159  RH  079%=      5-min Rain = 0
KSB1 111146Z 00000KT 20/16 A302 RMK A01 T01960159  RH  079%=      5-min Rain = 0
KSB1 111147Z 00000KT 20/16 A302 RMK A01 T01960157  RH  078%=      5-min Rain = 0
KSB1 111148Z 00000KT 20/16 A302 RMK A01 T01970157  RH  078%=      5-min Rain = 0
KSB1 111149Z 00000KT 20/16 A302 RMK A01 T01970157  RH  078%=      5-min Rain = 0
KSB1 111150Z 00000KT 20/16 A302 RMK A01 T01970157  RH  078%=      5-min Rain = 0
KSB1 111151Z 25002KT 20/16 A302 RMK A01 T01970158  RH  078%=      5-min Rain = 0
KSB1 111152Z 25002KT 20/16 A302 RMK A01 T01970158  RH  078%=      5-min Rain = 0
KSB1 111153Z 24002KT 20/16 A302 RMK A01 T01970158  RH  078%=      5-min Rain = 0
KSB1 111154Z 24002KT 20/16 A302 RMK A01 T01980159  RH  078%=      5-min Rain = 0
KSB1 111155Z 24002KT 20/16 A302 RMK A01 T01970158  RH  078%=      5-min Rain = 0
KSB1 111156Z 24001KT 20/16 A302 RMK A01 T01970158  RH  078%=      5-min Rain = 0
KSB1 111157Z 24001KT 20/16 A302 RMK A01 T01970158  RH  078%=      5-min Rain = 0
KSB1 111158Z 25001KT 20/16 A302 RMK A01 T01970158  RH  078%=      5-min Rain = 0
KSB1 111159Z 26002KT 20/16 A3021 RMK A01 T01970159  RH  079%=      5-min Rain = 0
KSB1 111200Z 26002KT 20/16 A3021 RMK A01 T01970160  RH  079%=      5-min Rain = 0
KSB1 111201Z 26001KT 20/16 A3021 RMK A01 T01970161  RH  080%=      5-min Rain = 0
KSB1 111202Z 28000KT 20/16 A3021 RMK A01 T01960163  RH  081%=      5-min Rain = 0
KSB1 111203Z 08000KT 20/16 A3021 RMK A01 T01950163  RH  081%=      5-min Rain = 0
KSB1 111204Z 08001KT 19/17 A3021 RMK A01 T01940166  RH  084%=      5-min Rain = 0
KSB1 111205Z 08000KT 19/17 A3021 RMK A01 T01920166  RH  085%=      5-min Rain = 0
KSB1 111206Z 00000KT 19/16 A3021 RMK A01 T01900162  RH  084%=      5-min Rain = 0
KSB1 111207Z 00000KT 19/16 A3021 RMK A01 T01900158  RH  082%=      5-min Rain = 0
KSB1 111208Z 00000KT 19/16 A3021 RMK A01 T01900163  RH  084%=      5-min Rain = 0
KSB1 111209Z 00000KT 19/17 A3021 RMK A01 T01910167  RH  086%=      5-min Rain = 0
KSB1 111210Z 00000KT 19/17 A3021 RMK A01 T01900168  RH  087%=      5-min Rain = 0
KSB1 111211Z 09000KT 19/17 A3021 RMK A01 T01890167  RH  087%=      5-min Rain = 0
KSB1 111212Z 09003KT 19/17 A3021 RMK A01 T01880168  RH  088%=      5-min Rain = 0
KSB1 111213Z 09003KT 19/17 A3021 RMK A01 T01870168  RH  089%=      5-min Rain = 0
KSB1 111214Z 09003KT 19/17 A3021 RMK A01 T01860168  RH  089%=      5-min Rain = 0
KSB1 111215Z 09003KT 19/17 A3021 RMK A01 T01850168  RH  090%=      5-min Rain = 0
KSB1 111216Z 08002KT 18/17 A3021 RMK A01 T01840168  RH  090%=      5-min Rain = 0
KSB1 111217Z 08002KT 18/17 A3021 RMK A01 T01840167  RH  090%=      5-min Rain = 0
KSB1 111218Z 09002KT 18/17 A3021 RMK A01 T01840168  RH  090%=      5-min Rain = 0
KSB1 111219Z 09003KT 18/17 A3021 RMK A01 T01840168  RH  091%=      5-min Rain = 0
KSB1 111220Z 10003KT 18/17 A3021 RMK A01 T01840168  RH  091%=      5-min Rain = 0
KSB1 111221Z 10002KT 18/17 A3021 RMK A01 T01840169  RH  091%=      5-min Rain = 0
KSB1 111222Z 10002KT 18/17 A3021 RMK A01 T01840169  RH  091%=      5-min Rain = 0
KSB1 111223Z 10002KT 18/17 A3021 RMK A01 T01830168  RH  091%=      5-min Rain = 0
KSB1 111224Z 10002KT 18/17 A3021 RMK A01 T01830168  RH  091%=      5-min Rain = 0
KSB1 111225Z 08002KT 18/17 A3021 RMK A01 T01830167  RH  090%=      5-min Rain = 0
KSB1 111226Z 08002KT 18/17 A3021 RMK A01 T01830166  RH  090%=      5-min Rain = 0
KSB1 111227Z 08003KT 18/17 A3021 RMK A01 T01830166  RH  090%=      5-min Rain = 0
KSB1 111228Z 07002KT 18/17 A3021 RMK A01 T01830166  RH  090%=      5-min Rain = 0
KSB1 111229Z 07002KT 18/17 A3021 RMK A01 T01830165  RH  089%=      5-min Rain = 0
KSB1 111230Z 07002KT 18/17 A3021 RMK A01 T01840165  RH  089%=      5-min Rain = 0
KSB1 111231Z 07002KT 18/17 A3021 RMK A01 T01840165  RH  089%=      5-min Rain = 0
KSB1 111232Z 07002KT 18/17 A3021 RMK A01 T01840166  RH  089%=      5-min Rain = 0
KSB1 111233Z 07002KT 18/17 A3021 RMK A01 T01840165  RH  089%=      5-min Rain = 0
KSB1 111234Z 07001KT 18/16 A3021 RMK A01 T01840164  RH  089%=      5-min Rain = 0
KSB1 111235Z 07001KT 18/16 A3021 RMK A01 T01840164  RH  088%=      5-min Rain = 0
KSB1 111236Z 07001KT 18/16 A3021 RMK A01 T01840164  RH  088%=      5-min Rain = 0
KSB1 111237Z 07001KT 18/16 A3021 RMK A01 T01840163  RH  088%=      5-min Rain = 0
KSB1 111238Z 07001KT 18/16 A3021 RMK A01 T01840163  RH  088%=      5-min Rain = 0
KSB1 111239Z 07001KT 18/16 A3021 RMK A01 T01840162  RH  087%=      5-min Rain = 0
KSB1 111240Z 07001KT 18/16 A3021 RMK A01 T01840162  RH  087%=      5-min Rain = 0
KSB1 111241Z 07001KT 19/16 A3021 RMK A01 T01850163  RH  087%=      5-min Rain = 0
KSB1 111242Z 07000KT 19/16 A3021 RMK A01 T01850163  RH  087%=      5-min Rain = 0
KSB1 111243Z 07000KT 19/16 A3021 RMK A01 T01850162  RH  086%=      5-min Rain = 0
KSB1 111244Z 11001KT 19/16 A3021 RMK A01 T01850162  RH  086%=      5-min Rain = 0
KSB1 111245Z 12002KT 19/16 A3021 RMK A01 T01860161  RH  085%=      5-min Rain = 0
KSB1 111246Z 13002KT 19/16 A3021 RMK A01 T01860162  RH  086%=      5-min Rain = 0
KSB1 111247Z 14002KT 19/17 A3021 RMK A01 T01870165  RH  087%=      5-min Rain = 0
KSB1 111248Z 15001KT 19/17 A3021 RMK A01 T01870166  RH  088%=      5-min Rain = 0
KSB1 111249Z 16001KT 19/17 A3021 RMK A01 T01870167  RH  088%=      5-min Rain = 0
KSB1 111250Z 15001KT 19/17 A3021 RMK A01 T01870167  RH  088%=      5-min Rain = 0
KSB1 111251Z 14001KT 19/17 A3021 RMK A01 T01860166  RH  088%=      5-min Rain = 0
KSB1 111252Z 13001KT 19/17 A3021 RMK A01 T01860165  RH  088%=      5-min Rain = 0
KSB1 111253Z 12001KT 19/16 A3021 RMK A01 T01860164  RH  087%=      5-min Rain = 0
KSB1 111254Z 12000KT 19/16 A3021 RMK A01 T01860163  RH  087%=      5-min Rain = 0
KSB1 111255Z 12001KT 19/16 A3021 RMK A01 T01850163  RH  087%=      5-min Rain = 0
KSB1 111256Z 14000KT 19/16 A3021 RMK A01 T01850161  RH  086%=      5-min Rain = 0
KSB1 111257Z 11000KT 19/16 A3021 RMK A01 T01860161  RH  086%=      5-min Rain = 0
KSB1 111258Z 11000KT 19/16 A3021 RMK A01 T01860162  RH  086%=      5-min Rain = 0
KSB1 111259Z 10000KT 19/16 A3021 RMK A01 T01860162  RH  086%=      5-min Rain = 0
KSB1 111300Z 11000KT 19/16 A3021 RMK A01 T01860161  RH  085%=      5-min Rain = 0
KSB1 111301Z 08000KT 19/16 A3021 RMK A01 T01870161  RH  085%=      5-min Rain = 0
KSB1 111302Z 00000KT 19/16 A3021 RMK A01 T01870162  RH  085%=      5-min Rain = 0
KSB1 111303Z 08000KT 19/16 A3021 RMK A01 T01870162  RH  085%=      5-min Rain = 0
KSB1 111304Z 07001KT 19/16 A3021 RMK A01 T01880162  RH  085%=      5-min Rain = 0
KSB1 111305Z 06001KT 19/16 A3021 RMK A01 T01870162  RH  085%=      5-min Rain = 0
KSB1 111306Z 05002KT 19/16 A3021 RMK A01 T01880162  RH  085%=      5-min Rain = 0
KSB1 111307Z 06002KT 19/16 A3021 RMK A01 T01880163  RH  085%=      5-min Rain = 0
KSB1 111308Z 06002KT 19/16 A3021 RMK A01 T01880164  RH  086%=      5-min Rain = 0
KSB1 111309Z 06002KT 19/16 A3021 RMK A01 T01880163  RH  085%=      5-min Rain = 0
KSB1 111310Z 06002KT 19/16 A3021 RMK A01 T01880164  RH  086%=      5-min Rain = 0
KSB1 111311Z 05002KT 19/16 A3021 RMK A01 T01890164  RH  086%=      5-min Rain = 0
KSB1 111312Z 05002KT 19/16 A3021 RMK A01 T01880164  RH  086%=      5-min Rain = 0
KSB1 111313Z 04001KT 19/16 A3021 RMK A01 T01880164  RH  086%=      5-min Rain = 0
KSB1 111314Z 03002KT 19/16 A3021 RMK A01 T01880163  RH  085%=      5-min Rain = 0
KSB1 111315Z 03002KT 19/16 A3021 RMK A01 T01880163  RH  085%=      5-min Rain = 0
KSB1 111316Z 02002KT 19/16 A3021 RMK A01 T01890164  RH  085%=      5-min Rain = 0
KSB1 111317Z 03002KT 19/16 A3021 RMK A01 T01890163  RH  085%=      5-min Rain = 0
KSB1 111318Z 03002KT 19/16 A3021 RMK A01 T01890163  RH  085%=      5-min Rain = 0
KSB1 111319Z 03002KT 19/16 A3021 RMK A01 T01890163  RH  084%=      5-min Rain = 0
KSB1 111320Z 04002KT 19/16 A3021 RMK A01 T01890163  RH  085%=      5-min Rain = 0
KSB1 111321Z 04002KT 19/16 A3021 RMK A01 T01900164  RH  085%=      5-min Rain = 0
KSB1 111322Z 04002KT 19/16 A3021 RMK A01 T01900163  RH  084%=      5-min Rain = 0
KSB1 111323Z 05002KT 19/16 A3021 RMK A01 T01900164  RH  085%=      5-min Rain = 0
KSB1 111324Z 05001KT 19/16 A3021 RMK A01 T01910163  RH  084%=      5-min Rain = 0
KSB1 111325Z 05001KT 19/16 A3021 RMK A01 T01910162  RH  084%=      5-min Rain = 0
KSB1 111326Z 05001KT 19/16 A3021 RMK A01 T01910164  RH  084%=      5-min Rain = 0
KSB1 111327Z 06002KT 19/16 A3021 RMK A01 T01920164  RH  084%=      5-min Rain = 0
KSB1 111328Z 07001KT 19/16 A3021 RMK A01 T01920164  RH  084%=      5-min Rain = 0
KSB1 111329Z 06002KT 19/16 A3021 RMK A01 T01910164  RH  084%=      5-min Rain = 0
KSB1 111330Z 06002KT 19/17 A3021 RMK A01 T01920165  RH  085%=      5-min Rain = 0
KSB1 111331Z 06002KT 19/17 A3021 RMK A01 T01920166  RH  085%=      5-min Rain = 0
KSB1 111332Z 06001KT 19/17 A3021 RMK A01 T01920166  RH  085%=      5-min Rain = 0
KSB1 111333Z 07001KT 19/17 A3022 RMK A01 T01920166  RH  085%=      5-min Rain = 0
KSB1 111334Z 07001KT 19/17 A3022 RMK A01 T01920165  RH  085%=      5-min Rain = 0
KSB1 111335Z 07001KT 19/17 A3022 RMK A01 T01920165  RH  085%=      5-min Rain = 0
KSB1 111336Z 08001KT 19/17 A3022 RMK A01 T01920165  RH  085%=      5-min Rain = 0
KSB1 111337Z 07001KT 19/17 A3022 RMK A01 T01920165  RH  084%=      5-min Rain = 0
KSB1 111338Z 06001KT 19/17 A3022 RMK A01 T01920165  RH  084%=      5-min Rain = 0
KSB1 111339Z 07001KT 19/17 A3022 RMK A01 T01930166  RH  084%=      5-min Rain = 0
KSB1 111340Z 06001KT 19/16 A3022 RMK A01 T01930164  RH  084%=      5-min Rain = 0
KSB1 111341Z 06001KT 19/17 A3022 RMK A01 T01930165  RH  084%=      5-min Rain = 0
KSB1 111342Z 09000KT 19/17 A3022 RMK A01 T01930165  RH  084%=      5-min Rain = 0
KSB1 111343Z 09001KT 19/17 A3022 RMK A01 T01930166  RH  084%=      5-min Rain = 0
KSB1 111344Z 09000KT 19/17 A3022 RMK A01 T01930166  RH  084%=      5-min Rain = 0
KSB1 111345Z 09000KT 19/17 A3022 RMK A01 T01940167  RH  084%=      5-min Rain = 0
KSB1 111346Z 00000KT 19/17 A3022 RMK A01 T01940166  RH  084%=      5-min Rain = 0
KSB1 111347Z 00000KT 19/17 A3022 RMK A01 T01940165  RH  084%=      5-min Rain = 0
KSB1 111348Z 00000KT 19/17 A3022 RMK A01 T01940166  RH  084%=      5-min Rain = 0
KSB1 111349Z 00000KT 19/17 A3022 RMK A01 T01940166  RH  084%=      5-min Rain = 0
KSB1 111350Z 00000KT 19/17 A3022 RMK A01 T01940166  RH  084%=      5-min Rain = 0
KSB1 111351Z 00000KT 19/17 A3022 RMK A01 T01940167  RH  084%=      5-min Rain = 0
KSB1 111352Z 18000KT 19/17 A3023 RMK A01 T01940167  RH  084%=      5-min Rain = 0
KSB1 111353Z 18001KT 19/17 A3023 RMK A01 T01940167  RH  084%=      5-min Rain = 0
KSB1 111354Z 19001KT 20/17 A3023 RMK A01 T01950168  RH  084%=      5-min Rain = 0
KSB1 111355Z 20001KT 20/17 A3023 RMK A01 T01950168  RH  084%=      5-min Rain = 0
KSB1 111356Z 20000KT 20/17 A3023 RMK A01 T01950168  RH  084%=      5-min Rain = 0
KSB1 111357Z 00000KT 20/17 A3023 RMK A01 T01950167  RH  084%=      5-min Rain = 0
KSB1 111358Z 00000KT 20/17 A3023 RMK A01 T01950167  RH  084%=      5-min Rain = 0
KSB1 111359Z 00000KT 20/17 A3023 RMK A01 T01950166  RH  083%=      5-min Rain = 0
KSB1 111400Z 00000KT 20/17 A3023 RMK A01 T01950166  RH  083%=      5-min Rain = 0
KSB1 111401Z 00000KT 20/17 A3023 RMK A01 T01950166  RH  083%=      5-min Rain = 0
KSB1 111402Z 00000KT 20/17 A3023 RMK A01 T01960167  RH  083%=      5-min Rain = 0
KSB1 111403Z 00000KT 20/17 A3023 RMK A01 T01960167  RH  083%=      5-min Rain = 0
KSB1 111404Z 00000KT 20/17 A3023 RMK A01 T01960166  RH  083%=      5-min Rain = 0
KSB1 111405Z 00000KT 20/17 A3023 RMK A01 T01970167  RH  083%=      5-min Rain = 0
KSB1 111406Z 00000KT 20/17 A3023 RMK A01 T01970166  RH  082%=      5-min Rain = 0
KSB1 111407Z 01000KT 20/16 A3023 RMK A01 T01970163  RH  081%=      5-min Rain = 0
KSB1 111408Z 02001KT 20/16 A3023 RMK A01 T01970164  RH  081%=      5-min Rain = 0
KSB1 111409Z 01001KT 20/17 A3023 RMK A01 T01970166  RH  082%=      5-min Rain = 0
KSB1 111410Z 03001KT 20/17 A3023 RMK A01 T01970166  RH  082%=      5-min Rain = 0
KSB1 111411Z 04001KT 20/17 A3023 RMK A01 T01980167  RH  082%=      5-min Rain = 0
KSB1 111412Z 07001KT 20/17 A3023 RMK A01 T01980168  RH  083%=      5-min Rain = 0
KSB1 111413Z 06001KT 20/17 A3023 RMK A01 T01980168  RH  083%=      5-min Rain = 0
KSB1 111414Z 03000KT 20/17 A3023 RMK A01 T01980168  RH  083%=      5-min Rain = 0
KSB1 111415Z 04001KT 20/17 A3023 RMK A01 T01980165  RH  081%=      5-min Rain = 0
KSB1 111416Z 07002KT 20/17 A3023 RMK A01 T01980165  RH  081%=      5-min Rain = 0
KSB1 111417Z 08002KT 20/17 A3023 RMK A01 T01990166  RH  081%=      5-min Rain = 0
KSB1 111418Z 07001KT 20/17 A3023 RMK A01 T01980166  RH  081%=      5-min Rain = 0
KSB1 111419Z 06001KT 20/17 A3023 RMK A01 T01980166  RH  082%=      5-min Rain = 0
KSB1 111420Z 06001KT 20/17 A3023 RMK A01 T01980166  RH  081%=      5-min Rain = 0
KSB1 111421Z 10001KT 20/17 A3023 RMK A01 T01980165  RH  081%=      5-min Rain = 0
KSB1 111422Z 09001KT 20/17 A3023 RMK A01 T01980165  RH  081%=      5-min Rain = 0
KSB1 111423Z 09002KT 20/17 A3023 RMK A01 T01990165  RH  081%=      5-min Rain = 0
KSB1 111424Z 09002KT 20/17 A3023 RMK A01 T01990166  RH  081%=      5-min Rain = 0
KSB1 111425Z 10002KT 20/17 A3023 RMK A01 T01990166  RH  081%=      5-min Rain = 0
KSB1 111426Z 10002KT 20/17 A3023 RMK A01 T01990165  RH  081%=      5-min Rain = 0
KSB1 111427Z 09002KT 20/17 A3023 RMK A01 T01990166  RH  081%=      5-min Rain = 0
KSB1 111428Z 09003KT 20/17 A3023 RMK A01 T01990166  RH  081%=      5-min Rain = 0
KSB1 111429Z 10003KT 20/17 A3023 RMK A01 T01990165  RH  080%=      5-min Rain = 0
KSB1 111430Z 10004KT 20/16 A3023 RMK A01 T02000163  RH  079%=      5-min Rain = 0
KSB1 111431Z 11004KT 20/16 A3023 RMK A01 T02000163  RH  079%=      5-min Rain = 0
KSB1 111432Z 10004KT 20/16 A3023 RMK A01 T02010162  RH  079%=      5-min Rain = 0
KSB1 111433Z 10003KT 20/16 A3023 RMK A01 T02010163  RH  079%=      5-min Rain = 0
KSB1 111434Z 11002KT 20/17 A3023 RMK A01 T02020165  RH  079%=      5-min Rain = 0
KSB1 111435Z 11002KT 20/17 A3023 RMK A01 T02020165  RH  079%=      5-min Rain = 0
KSB1 111436Z 12003KT 20/16 A3023 RMK A01 T02020164  RH  079%=      5-min Rain = 0
KSB1 111437Z 13003KT 20/17 A3024 RMK A01 T02020165  RH  079%=      5-min Rain = 0
KSB1 111438Z 13003KT 20/16 A3024 RMK A01 T02030164  RH  078%=      5-min Rain = 0
KSB1 111439Z 13003KT 20/16 A3024 RMK A01 T02030162  RH  078%=      5-min Rain = 0
KSB1 111440Z 13002KT 20/16 A3024 RMK A01 T02030162  RH  077%=      5-min Rain = 0
KSB1 111441Z 13003KT 20/16 A3024 RMK A01 T02030163  RH  078%=      5-min Rain = 0
KSB1 111442Z 13002KT 20/16 A3024 RMK A01 T02030162  RH  077%=      5-min Rain = 0
KSB1 111443Z 13002KT 20/16 A3024 RMK A01 T02030163  RH  078%=      5-min Rain = 0
KSB1 111444Z 12002KT 20/16 A3024 RMK A01 T02030163  RH  078%=      5-min Rain = 0
KSB1 111445Z 13002KT 20/16 A3024 RMK A01 T02030164  RH  078%=      5-min Rain = 0
KSB1 111446Z 13003KT 20/17 A3024 RMK A01 T02030165  RH  078%=      5-min Rain = 0
KSB1 111447Z 13002KT 20/17 A3024 RMK A01 T02030166  RH  079%=      5-min Rain = 0
KSB1 111448Z 13002KT 20/17 A3024 RMK A01 T02040167  RH  080%=      5-min Rain = 0
KSB1 111449Z 13002KT 20/17 A3024 RMK A01 T02040165  RH  078%=      5-min Rain = 0
KSB1 111450Z 12002KT 20/17 A3024 RMK A01 T02040165  RH  078%=      5-min Rain = 0
KSB1 111451Z 11001KT 20/17 A3024 RMK A01 T02040165  RH  078%=      5-min Rain = 0
KSB1 111452Z 11002KT 20/17 A3024 RMK A01 T02040167  RH  079%=      5-min Rain = 0
KSB1 111453Z 11002KT 20/17 A3024 RMK A01 T02040166  RH  078%=      5-min Rain = 0
KSB1 111454Z 12002KT 20/16 A3024 RMK A01 T02040164  RH  078%=      5-min Rain = 0
KSB1 111455Z 13002KT 21/16 A3024 RMK A01 T02050164  RH  077%=      5-min Rain = 0
KSB1 111456Z 13002KT 21/16 A3024 RMK A01 T02050164  RH  077%=      5-min Rain = 0
KSB1 111457Z 13003KT 21/16 A3024 RMK A01 T02060163  RH  076%=      5-min Rain = 0
KSB1 111458Z 14003KT 21/16 A3024 RMK A01 T02060163  RH  076%=      5-min Rain = 0
KSB1 111459Z 15002KT 21/16 A3024 RMK A01 T02060164  RH  077%=      5-min Rain = 0
KSB1 111500Z 15001KT 21/17 A3024 RMK A01 T02060165  RH  077%=      5-min Rain = 0
KSB1 111501Z 16001KT 21/17 A3024 RMK A01 T02060165  RH  077%=      5-min Rain = 0
KSB1 111502Z 16002KT 21/16 A3024 RMK A01 T02070164  RH  077%=      5-min Rain = 0
KSB1 111503Z 15002KT 21/16 A3024 RMK A01 T02070164  RH  076%=      5-min Rain = 0
KSB1 111504Z 15002KT 21/17 A3024 RMK A01 T02070166  RH  077%=      5-min Rain = 0
KSB1 111505Z 18002KT 21/17 A3024 RMK A01 T02080166  RH  077%=      5-min Rain = 0
KSB1 111506Z 16003KT 21/17 A3024 RMK A01 T02080166  RH  077%=      5-min Rain = 0
KSB1 111507Z 15003KT 21/16 A3024 RMK A01 T02080163  RH  075%=      5-min Rain = 0
KSB1 111508Z 15002KT 21/16 A3024 RMK A01 T02080162  RH  075%=      5-min Rain = 0
KSB1 111509Z 16002KT 21/16 A3024 RMK A01 T02090164  RH  075%=      5-min Rain = 0
KSB1 111510Z 15002KT 21/16 A3023 RMK A01 T02090162  RH  074%=      5-min Rain = 0
KSB1 111511Z 15003KT 21/16 A3024 RMK A01 T02100163  RH  074%=      5-min Rain = 0
KSB1 111512Z 14003KT 21/16 A3024 RMK A01 T02110163  RH  074%=      5-min Rain = 0
KSB1 111513Z 14003KT 21/16 A3024 RMK A01 T02110164  RH  074%=      5-min Rain = 0
KSB1 111514Z 17003KT 21/16 A3024 RMK A01 T02120163  RH  074%=      5-min Rain = 0
KSB1 111515Z 17003KT 21/16 A3024 RMK A01 T02120163  RH  074%=      5-min Rain = 0
KSB1 111516Z 16003KT 21/16 A3024 RMK A01 T02120164  RH  074%=      5-min Rain = 0
KSB1 111517Z 16002KT 21/16 A3024 RMK A01 T02120163  RH  074%=      5-min Rain = 0
KSB1 111518Z 17003KT 21/16 A3024 RMK A01 T02120163  RH  073%=      5-min Rain = 0
KSB1 111519Z 17003KT 21/16 A3024 RMK A01 T02120164  RH  074%=      5-min Rain = 0
KSB1 111520Z 18002KT 21/16 A3024 RMK A01 T02120163  RH  073%=      5-min Rain = 0
KSB1 111521Z 17002KT 21/16 A3024 RMK A01 T02120164  RH  074%=      5-min Rain = 0
KSB1 111522Z 17002KT 21/16 A3024 RMK A01 T02130164  RH  074%=      5-min Rain = 0
KSB1 111523Z 16003KT 21/16 A3024 RMK A01 T02130164  RH  074%=      5-min Rain = 0
KSB1 111524Z 16002KT 21/16 A3024 RMK A01 T02140164  RH  073%=      5-min Rain = 0
KSB1 111525Z 16002KT 21/17 A3024 RMK A01 T02140165  RH  074%=      5-min Rain = 0
KSB1 111526Z 15002KT 22/17 A3024 RMK A01 T02150166  RH  073%=      5-min Rain = 0
KSB1 111527Z 14002KT 22/17 A3024 RMK A01 T02160166  RH  073%=      5-min Rain = 0
KSB1 111528Z 15003KT 22/17 A3024 RMK A01 T02160165  RH  073%=      5-min Rain = 0
KSB1 111529Z 13002KT 22/17 A3024 RMK A01 T02170166  RH  073%=      5-min Rain = 0
KSB1 111530Z 13002KT 22/17 A3024 RMK A01 T02180166  RH  073%=      5-min Rain = 0
KSB1 111531Z 14003KT 22/17 A3024 RMK A01 T02170165  RH  072%=      5-min Rain = 0
KSB1 111532Z 14002KT 22/17 A3024 RMK A01 T02180165  RH  072%=      5-min Rain = 0
KSB1 111533Z 13002KT 22/17 A3024 RMK A01 T02180166  RH  072%=      5-min Rain = 0
KSB1 111534Z 16002KT 22/17 A3024 RMK A01 T02190166  RH  072%=      5-min Rain = 0
KSB1 111535Z 15003KT 22/17 A3024 RMK A01 T02200165  RH  071%=      5-min Rain = 0
KSB1 111536Z 13003KT 22/17 A3024 RMK A01 T02200165  RH  071%=      5-min Rain = 0
KSB1 111537Z 14003KT 22/17 A3024 RMK A01 T02210165  RH  071%=      5-min Rain = 0
KSB1 111538Z 14003KT 22/17 A3024 RMK A01 T02210165  RH  071%=      5-min Rain = 0
KSB1 111539Z 13004KT 22/17 A3024 RMK A01 T02210165  RH  071%=      5-min Rain = 0
KSB1 111540Z 16003KT 22/17 A3024 RMK A01 T02210165  RH  070%=      5-min Rain = 0
KSB1 111541Z 15002KT 22/16 A3024 RMK A01 T02210164  RH  070%=      5-min Rain = 0
KSB1 111542Z 16001KT 22/17 A3023 RMK A01 T02220166  RH  070%=      5-min Rain = 0
KSB1 111543Z 15003KT 22/17 A3023 RMK A01 T02230165  RH  070%=      5-min Rain = 0
KSB1 111544Z 12002KT 22/16 A3023 RMK A01 T02230163  RH  069%=      5-min Rain = 0
KSB1 111545Z 13002KT 22/17 A3023 RMK A01 T02230165  RH  070%=      5-min Rain = 0
KSB1 111546Z 14005KT 22/17 A3023 RMK A01 T02230165  RH  069%=      5-min Rain = 0
KSB1 111547Z 14006KT 23/16 A3023 RMK A01 T02250161  RH  067%=      5-min Rain = 0
KSB1 111548Z 14005KT 23/16 A3023 RMK A01 T02260159  RH  066%=      5-min Rain = 0
KSB1 111549Z 15006KT 23/16 A3023 RMK A01 T02270159  RH  065%=      5-min Rain = 0
KSB1 111550Z 15006KT 23/16 A3023 RMK A01 T02260160  RH  066%=      5-min Rain = 0
KSB1 111551Z 16006KT 23/16 A3023 RMK A01 T02280159  RH  065%=      5-min Rain = 0
KSB1 111552Z 17005KT 23/16 A3023 RMK A01 T02280159  RH  065%=      5-min Rain = 0
KSB1 111553Z 16004KT 23/16 A3023 RMK A01 T02290159  RH  065%=      5-min Rain = 0
KSB1 111554Z 17005KT 23/16 A3023 RMK A01 T02300160  RH  065%=      5-min Rain = 0
KSB1 111555Z 18005KT 23/16 A3023 RMK A01 T02300160  RH  065%=      5-min Rain = 0
KSB1 111556Z 18007KT 23/16 A3023 RMK A01 T02290161  RH  065%=      5-min Rain = 0
KSB1 111557Z 18006KT 23/16 A3023 RMK A01 T02290160  RH  065%=      5-min Rain = 0
KSB1 111558Z 18005KT 23/16 A3023 RMK A01 T02270161  RH  066%=      5-min Rain = 0
KSB1 111559Z 16005KT 23/16 A3023 RMK A01 T02280162  RH  066%=      5-min Rain = 0
KSB1 111600Z 16005KT 23/16 A3023 RMK A01 T02290162  RH  066%=      5-min Rain = 0
KSB1 111601Z 16006KT 23/16 A3023 RMK A01 T02310161  RH  065%=      5-min Rain = 0
KSB1 111602Z 16007KT 23/16 A3023 RMK A01 T02310160  RH  064%=      5-min Rain = 0
KSB1 111603Z 16007KT 23/16 A3023 RMK A01 T02310160  RH  064%=      5-min Rain = 0
KSB1 111604Z 16007KT 23/16 A3023 RMK A01 T02310159  RH  064%=      5-min Rain = 0
KSB1 111605Z 15006KT 23/16 A3023 RMK A01 T02320160  RH  064%=      5-min Rain = 0
KSB1 111606Z 15006KT 23/16 A3023 RMK A01 T02320161  RH  064%=      5-min Rain = 0
KSB1 111607Z 15005KT 23/16 A3023 RMK A01 T02340162  RH  064%=      5-min Rain = 0
KSB1 111608Z 17006KT 24/16 A3023 RMK A01 T02350162  RH  064%=      5-min Rain = 0
KSB1 111609Z 15004KT 24/16 A3023 RMK A01 T02360162  RH  063%=      5-min Rain = 0
KSB1 111610Z 15005KT 24/16 A3023 RMK A01 T02370163  RH  063%=      5-min Rain = 0
KSB1 111611Z 14004KT 24/16 A3023 RMK A01 T02380161  RH  062%=      5-min Rain = 0
KSB1 111612Z 13004KT 24/16 A3023 RMK A01 T02380162  RH  062%=      5-min Rain = 0
KSB1 111613Z 13004KT 24/16 A3023 RMK A01 T02390163  RH  062%=      5-min Rain = 0
KSB1 111614Z 13003KT 24/16 A3023 RMK A01 T02400161  RH  061%=      5-min Rain = 0
KSB1 111615Z 12006KT 24/16 A3023 RMK A01 T02400162  RH  062%=      5-min Rain = 0
KSB1 111616Z 15005KT 24/16 A3023 RMK A01 T02400161  RH  061%=      5-min Rain = 0
KSB1 111617Z 14006KT 24/16 A3023 RMK A01 T02400161  RH  061%=      5-min Rain = 0
KSB1 111618Z 11006KT 24/16 A3023 RMK A01 T02410161  RH  061%=      5-min Rain = 0
KSB1 111619Z 13008KT 24/16 A3023 RMK A01 T02400161  RH  061%=      5-min Rain = 0
KSB1 111620Z 12007KT 24/16 A3023 RMK A01 T02400160  RH  061%=      5-min Rain = 0
KSB1 111621Z 14006KT 24/16 A3023 RMK A01 T02400162  RH  062%=      5-min Rain = 0
KSB1 111622Z 16006KT 24/16 A3023 RMK A01 T02420160  RH  060%=      5-min Rain = 0
KSB1 111623Z 13004KT 24/16 A3023 RMK A01 T02430160  RH  060%=      5-min Rain = 0
KSB1 111624Z 12006KT 24/16 A3023 RMK A01 T02430161  RH  060%=      5-min Rain = 0
KSB1 111625Z 13007KT 24/16 A3023 RMK A01 T02440162  RH  060%=      5-min Rain = 0
KSB1 111626Z 15008KT 25/16 A3023 RMK A01 T02450164  RH  060%=      5-min Rain = 0
KSB1 111627Z 16007KT 25/16 A3023 RMK A01 T02470161  RH  059%=      5-min Rain = 0
KSB1 111628Z 15007KT 25/16 A3023 RMK A01 T02460163  RH  060%=      5-min Rain = 0
KSB1 111629Z 14005KT 25/16 A3023 RMK A01 T02460161  RH  059%=      5-min Rain = 0
KSB1 111630Z 15004KT 25/16 A3023 RMK A01 T02460158  RH  058%=      5-min Rain = 0
KSB1 111631Z 12006KT 25/16 A3023 RMK A01 T02460160  RH  059%=      5-min Rain = 0
KSB1 111632Z 12006KT 25/16 A3023 RMK A01 T02460160  RH  059%=      5-min Rain = 0
KSB1 111633Z 14005KT 25/16 A3023 RMK A01 T02450161  RH  060%=      5-min Rain = 0
KSB1 111634Z 12006KT 25/16 A3023 RMK A01 T02470163  RH  059%=      5-min Rain = 0
KSB1 111635Z 11006KT 25/16 A3023 RMK A01 T02490160  RH  058%=      5-min Rain = 0
KSB1 111636Z 11006KT 25/16 A3023 RMK A01 T02480159  RH  058%=      5-min Rain = 0
KSB1 111637Z 11007KT 25/16 A3023 RMK A01 T02470160  RH  058%=      5-min Rain = 0
KSB1 111638Z 12008KT 25/16 A3023 RMK A01 T02460161  RH  059%=      5-min Rain = 0
KSB1 111639Z 13008KT 25/16 A3023 RMK A01 T02490161  RH  058%=      5-min Rain = 0
KSB1 111640Z 12006KT 25/16 A3023 RMK A01 T02510159  RH  057%=      5-min Rain = 0
KSB1 111641Z 12006KT 25/16 A3023 RMK A01 T02510158  RH  056%=      5-min Rain = 0
KSB1 111642Z 13004KT 25/16 A3023 RMK A01 T02510159  RH  056%=      5-min Rain = 0
KSB1 111643Z 13007KT 25/16 A3023 RMK A01 T02510160  RH  057%=      5-min Rain = 0
KSB1 111644Z 14008KT 25/16 A3023 RMK A01 T02530160  RH  056%=      5-min Rain = 0
KSB1 111645Z 13004KT 25/16 A3023 RMK A01 T02540158  RH  055%=      5-min Rain = 0
KSB1 111646Z 13004KT 25/16 A3023 RMK A01 T02540160  RH  056%=      5-min Rain = 0
KSB1 111647Z 12008KT 25/16 A3023 RMK A01 T02540161  RH  056%=      5-min Rain = 0
KSB1 111648Z 11009KT 26/16 A3023 RMK A01 T02550161  RH  056%=      5-min Rain = 0
KSB1 111649Z 11008KT 25/16 A3023 RMK A01 T02530162  RH  057%=      5-min Rain = 0
KSB1 111650Z 12006KT 25/16 A3023 RMK A01 T02530160  RH  056%=      5-min Rain = 0
KSB1 111651Z 11007KT 25/16 A3023 RMK A01 T02520159  RH  056%=      5-min Rain = 0
KSB1 111652Z 11007KT 25/16 A3023 RMK A01 T02510161  RH  057%=      5-min Rain = 0
KSB1 111653Z 16006KT 25/16 A3023 RMK A01 T02530161  RH  057%=      5-min Rain = 0
KSB1 111654Z 14004KT 25/16 A3023 RMK A01 T02540160  RH  056%=      5-min Rain = 0
KSB1 111655Z 12006KT 25/16 A3023 RMK A01 T02540159  RH  056%=      5-min Rain = 0
KSB1 111656Z 12008KT 25/16 A3023 RMK A01 T02530162  RH  057%=      5-min Rain = 0
KSB1 111657Z 13007KT 26/16 A3023 RMK A01 T02560161  RH  056%=      5-min Rain = 0
KSB1 111658Z 12008KT 26/16 A3023 RMK A01 T02560159  RH  055%=      5-min Rain = 0
KSB1 111659Z 11006KT 25/16 A3023 RMK A01 T02540158  RH  055%=      5-min Rain = 0
KSB1 111700Z 11008KT 25/16 A3023 RMK A01 T02530161  RH  057%=      5-min Rain = 0
KSB1 111701Z 12007KT 26/16 A3023 RMK A01 T02550160  RH  056%=      5-min Rain = 0
KSB1 111702Z 11008KT 26/16 A3023 RMK A01 T02550160  RH  055%=      5-min Rain = 0
KSB1 111703Z 11008KT 25/16 A3023 RMK A01 T02540159  RH  056%=      5-min Rain = 0
KSB1 111704Z 12009KT 25/16 A3023 RMK A01 T02530159  RH  056%=      5-min Rain = 0
KSB1 111705Z 13008KT 25/16 A3023 RMK A01 T02530159  RH  056%=      5-min Rain = 0
KSB1 111706Z 12007KT 25/16 A3023 RMK A01 T02540159  RH  056%=      5-min Rain = 0
KSB1 111707Z 13006KT 26/16 A3023 RMK A01 T02550158  RH  055%=      5-min Rain = 0
KSB1 111708Z 14009KT 26/16 A3023 RMK A01 T02570160  RH  055%=      5-min Rain = 0
KSB1 111709Z 14006KT 26/16 A3023 RMK A01 T02590157  RH  053%=      5-min Rain = 0
KSB1 111710Z 13007KT 26/16 A3023 RMK A01 T02590159  RH  054%=      5-min Rain = 0
KSB1 111711Z 14008KT 26/16 A3023 RMK A01 T02590156  RH  053%=      5-min Rain = 0
KSB1 111712Z 15005KT 26/15 A3023 RMK A01 T02590154  RH  052%=      5-min Rain = 0
KSB1 111713Z 15003KT 26/15 A3023 RMK A01 T02570153  RH  053%=      5-min Rain = 0
KSB1 111714Z 13005KT 26/16 A3023 RMK A01 T02570157  RH  054%=      5-min Rain = 0
KSB1 111715Z 11005KT 26/16 A3023 RMK A01 T02590159  RH  054%=      5-min Rain = 0
KSB1 111716Z 11006KT 26/16 A3023 RMK A01 T02590159  RH  054%=      5-min Rain = 0
KSB1 111717Z 11005KT 26/16 A3023 RMK A01 T02590159  RH  054%=      5-min Rain = 0
KSB1 111718Z 15007KT 26/16 A3023 RMK A01 T02590158  RH  054%=      5-min Rain = 0
KSB1 111719Z 16006KT 26/16 A3023 RMK A01 T02600157  RH  053%=      5-min Rain = 0
KSB1 111720Z 14005KT 26/16 A3023 RMK A01 T02600158  RH  053%=      5-min Rain = 0
KSB1 111721Z 15007KT 26/16 A3023 RMK A01 T02620159  RH  053%=      5-min Rain = 0
KSB1 111722Z 14007KT 26/16 A3023 RMK A01 T02620158  RH  053%=      5-min Rain = 0
KSB1 111723Z 13006KT 26/16 A3023 RMK A01 T02620157  RH  052%=      5-min Rain = 0
KSB1 111724Z 16008KT 26/16 A3023 RMK A01 T02630158  RH  053%=      5-min Rain = 0
KSB1 111725Z 15007KT 26/16 A3023 RMK A01 T02630158  RH  052%=      5-min Rain = 0
KSB1 111726Z 16007KT 26/16 A3023 RMK A01 T02620158  RH  053%=      5-min Rain = 0
KSB1 111727Z 16006KT 26/16 A3023 RMK A01 T02620157  RH  052%=      5-min Rain = 0
KSB1 111728Z 16006KT 26/16 A3023 RMK A01 T02620157  RH  052%=      5-min Rain = 0
KSB1 111729Z 15007KT 26/16 A3023 RMK A01 T02630157  RH  052%=      5-min Rain = 0
KSB1 111730Z 15008KT 27/15 A3023 RMK A01 T02650154  RH  050%=      5-min Rain = 0
KSB1 111731Z 14007KT 27/16 A3023 RMK A01 T02670155  RH  050%=      5-min Rain = 0
KSB1 111732Z 15006KT 27/16 A3023 RMK A01 T02660155  RH  051%=      5-min Rain = 0
KSB1 111733Z 18006KT 27/16 A3023 RMK A01 T02650156  RH  051%=      5-min Rain = 0
KSB1 111734Z 16007KT 26/16 A3023 RMK A01 T02640155  RH  051%=      5-min Rain = 0
KSB1 111735Z 14008KT 26/16 A3023 RMK A01 T02640157  RH  052%=      5-min Rain = 0
KSB1 111736Z 15006KT 27/16 A3023 RMK A01 T02660157  RH  051%=      5-min Rain = 0
KSB1 111737Z 15006KT 27/16 A3023 RMK A01 T02660156  RH  051%=      5-min Rain = 0
KSB1 111738Z 16004KT 27/16 A3023 RMK A01 T02670155  RH  050%=      5-min Rain = 0
KSB1 111739Z 14005KT 27/16 A3023 RMK A01 T02680156  RH  050%=      5-min Rain = 0
KSB1 111740Z 15005KT 27/16 A3023 RMK A01 T02690155  RH  050%=      5-min Rain = 0
KSB1 111741Z 16006KT 27/16 A3023 RMK A01 T02700156  RH  050%=      5-min Rain = 0
KSB1 111742Z 16005KT 27/16 A3023 RMK A01 T02720155  RH  049%=      5-min Rain = 0
KSB1 111743Z 18008KT 27/16 A3022 RMK A01 T02720156  RH  049%=      5-min Rain = 0
KSB1 111744Z 18007KT 27/16 A3022 RMK A01 T02720155  RH  049%=      5-min Rain = 0
KSB1 111745Z 20008KT 27/16 A3022 RMK A01 T02690155  RH  049%=      5-min Rain = 0
KSB1 111746Z 20006KT 27/16 A3022 RMK A01 T02680155  RH  050%=      5-min Rain = 0
KSB1 111747Z 18006KT 27/15 A3022 RMK A01 T02680154  RH  050%=      5-min Rain = 0
KSB1 111748Z 18010KT 27/16 A3022 RMK A01 T02700157  RH  050%=      5-min Rain = 0
KSB1 111749Z 18007KT 27/16 A3022 RMK A01 T02730157  RH  049%=      5-min Rain = 0
KSB1 111750Z 18006KT 27/16 A3022 RMK A01 T02720155  RH  049%=      5-min Rain = 0
KSB1 111751Z 21007KT 27/16 A3022 RMK A01 T02720155  RH  049%=      5-min Rain = 0
KSB1 111752Z 23007KT 27/16 A3022 RMK A01 T02710155  RH  049%=      5-min Rain = 0
KSB1 111753Z 22007KT 27/16 A3022 RMK A01 T02730156  RH  049%=      5-min Rain = 0
KSB1 111754Z 17007KT 28/16 A3022 RMK A01 T02770158  RH  048%=      5-min Rain = 0
KSB1 111755Z 17006KT 28/15 A3022 RMK A01 T02790154  RH  047%=      5-min Rain = 0
KSB1 111756Z 20006KT 28/15 A3022 RMK A01 T02760154  RH  047%=      5-min Rain = 0
KSB1 111757Z 17008KT 28/15 A3022 RMK A01 T02750152  RH  047%=      5-min Rain = 0
KSB1 111758Z 16010KT 28/15 A3022 RMK A01 T02750154  RH  048%=      5-min Rain = 0
KSB1 111759Z 17008KT 28/15 A3022 RMK A01 T02750151  RH  047%=      5-min Rain = 0
KSB1 111800Z 18006KT 27/15 A3022 RMK A01 T02740151  RH  047%=      5-min Rain = 0
KSB1 111801Z 16006G11KT 27/15 A3022 RMK A01 T02710152  RH  048%=      5-min Rain = 0
KSB1 111802Z 16013KT 28/16 A3022 RMK A01 T02750155  RH  048%=      5-min Rain = 0
KSB1 111803Z 16010KT 28/15 A3022 RMK A01 T02770154  RH  047%=      5-min Rain = 0
KSB1 111804Z 17008KT 28/15 A3022 RMK A01 T02780152  RH  046%=      5-min Rain = 0
KSB1 111805Z 17007KT 28/15 A3022 RMK A01 T02750151  RH  047%=      5-min Rain = 0
KSB1 111806Z 18006KT 28/15 A3022 RMK A01 T02750152  RH  047%=      5-min Rain = 0
KSB1 111807Z 19005KT 27/15 A3022 RMK A01 T02720148  RH  047%=      5-min Rain = 0
KSB1 111808Z 19003KT 27/15 A3022 RMK A01 T02720149  RH  047%=      5-min Rain = 0
KSB1 111809Z 17007KT 27/15 A3022 RMK A01 T02720151  RH  048%=      5-min Rain = 0
KSB1 111810Z 16012KT 28/16 A3021 RMK A01 T02760155  RH  048%=      5-min Rain = 0
KSB1 111811Z 16008KT 28/16 A3021 RMK A01 T02800156  RH  047%=      5-min Rain = 0
KSB1 111812Z 15008KT 28/16 A3021 RMK A01 T02830155  RH  046%=      5-min Rain = 0
KSB1 111813Z 16006G11KT 28/15 A3021 RMK A01 T02820152  RH  045%=      5-min Rain = 0
KSB1 111814Z 17004KT 28/15 A3021 RMK A01 T02810151  RH  045%=      5-min Rain = 0
KSB1 111815Z 15006KT 28/15 A3021 RMK A01 T02800151  RH  045%=      5-min Rain = 0
KSB1 111816Z 18008KT 28/15 A3021 RMK A01 T02800151  RH  045%=      5-min Rain = 0
KSB1 111817Z 18005KT 28/15 A3021 RMK A01 T02810150  RH  045%=      5-min Rain = 0
KSB1 111818Z 18010KT 28/15 A3021 RMK A01 T02810150  RH  045%=      5-min Rain = 0
KSB1 111819Z 18010KT 28/15 A3021 RMK A01 T02800151  RH  045%=      5-min Rain = 0
KSB1 111820Z 19009KT 28/15 A3021 RMK A01 T02790149  RH  045%=      5-min Rain = 0
KSB1 111821Z 20007KT 28/15 A3021 RMK A01 T02770148  RH  045%=      5-min Rain = 0
KSB1 111822Z 20008KT 28/15 A3021 RMK A01 T02750149  RH  046%=      5-min Rain = 0
KSB1 111823Z 19005KT 27/15 A3021 RMK A01 T02740148  RH  046%=      5-min Rain = 0
KSB1 111824Z 17007KT 27/15 A3021 RMK A01 T02730148  RH  046%=      5-min Rain = 0
KSB1 111825Z 16010KT 28/15 A3021 RMK A01 T02750149  RH  046%=      5-min Rain = 0
KSB1 111826Z 16008KT 28/15 A3021 RMK A01 T02780149  RH  045%=      5-min Rain = 0
KSB1 111827Z 17006KT 28/15 A3021 RMK A01 T02770149  RH  045%=      5-min Rain = 0
KSB1 111828Z 17009KT 28/15 A3021 RMK A01 T02770149  RH  046%=      5-min Rain = 0
KSB1 111829Z 18007KT 28/15 A3021 RMK A01 T02780149  RH  045%=      5-min Rain = 0
KSB1 111830Z 17007G13KT 28/15 A3021 RMK A01 T02800148  RH  044%=      5-min Rain = 0
KSB1 111831Z 16011KT 28/15 A3021 RMK A01 T02790150  RH  045%=      5-min Rain = 0
KSB1 111832Z 16007KT 28/15 A3021 RMK A01 T02810147  RH  044%=      5-min Rain = 0
KSB1 111833Z 15003KT 28/15 A3021 RMK A01 T02790147  RH  044%=      5-min Rain = 0
KSB1 111834Z 15006KT 28/15 A3021 RMK A01 T02800146  RH  044%=      5-min Rain = 0
KSB1 111835Z 16010KT 28/15 A302 RMK A01 T02830151  RH  044%=      5-min Rain = 0
KSB1 111836Z 16008KT 29/15 A3021 RMK A01 T02860147  RH  043%=      5-min Rain = 0
KSB1 111837Z 16011KT 29/15 A302 RMK A01 T02850148  RH  043%=      5-min Rain = 0
KSB1 111838Z 16010KT 29/15 A3021 RMK A01 T02850145  RH  042%=      5-min Rain = 0
KSB1 111839Z 16008KT 28/15 A3021 RMK A01 T02840145  RH  043%=      5-min Rain = 0
KSB1 111840Z 16007KT 28/14 A302 RMK A01 T02810143  RH  043%=      5-min Rain = 0
KSB1 111841Z 18008KT 28/14 A302 RMK A01 T02790143  RH  043%=      5-min Rain = 0
KSB1 111842Z 15006KT 28/14 A302 RMK A01 T02770144  RH  044%=      5-min Rain = 0
KSB1 111843Z 16006KT 28/15 A302 RMK A01 T02780146  RH  044%=      5-min Rain = 0
KSB1 111844Z 17004KT 28/15 A302 RMK A01 T02780146  RH  044%=      5-min Rain = 0
KSB1 111845Z 18007KT 28/15 A302 RMK A01 T02780147  RH  045%=      5-min Rain = 0
KSB1 111846Z 16011KT 28/15 A302 RMK A01 T02780148  RH  045%=      5-min Rain = 0
KSB1 111847Z 16010KT 28/15 A302 RMK A01 T02810147  RH  044%=      5-min Rain = 0
KSB1 111848Z 16008KT 28/15 A302 RMK A01 T02830147  RH  043%=      5-min Rain = 0
KSB1 111849Z 17005KT 28/14 A302 RMK A01 T02840142  RH  042%=      5-min Rain = 0
KSB1 111850Z 17005KT 28/14 A302 RMK A01 T02830143  RH  042%=      5-min Rain = 0
KSB1 111851Z 19005KT 28/15 A302 RMK A01 T02830145  RH  043%=      5-min Rain = 0
KSB1 111852Z 20006KT 28/15 A302 RMK A01 T02820147  RH  044%=      5-min Rain = 0
KSB1 111853Z 21005KT 28/15 A302 RMK A01 T02820148  RH  044%=      5-min Rain = 0
KSB1 111854Z 19008KT 28/15 A302 RMK A01 T02820147  RH  044%=      5-min Rain = 0
KSB1 111855Z 18010KT 28/15 A302 RMK A01 T02840145  RH  043%=      5-min Rain = 0
KSB1 111856Z 18009KT 29/14 A302 RMK A01 T02850143  RH  042%=      5-min Rain = 0
KSB1 111857Z 19009KT 29/14 A3019 RMK A01 T02850143  RH  042%=      5-min Rain = 0
KSB1 111858Z 17008G15KT 29/15 A3019 RMK A01 T02850145  RH  042%=      5-min Rain = 0
KSB1 111859Z 13011KT 29/14 A3019 RMK A01 T02870144  RH  042%=      5-min Rain = 0
KSB1 111900Z 13010KT 29/14 A3019 RMK A01 T02880142  RH  041%=      5-min Rain = 0
KSB1 111901Z 11009KT 29/14 A3019 RMK A01 T02860141  RH  041%=      5-min Rain = 0
KSB1 111902Z 15008KT 28/14 A3019 RMK A01 T02820143  RH  043%=      5-min Rain = 0
KSB1 111903Z 16006KT 28/14 A3019 RMK A01 T02830143  RH  042%=      5-min Rain = 0
KSB1 111904Z 16008KT 28/14 A3019 RMK A01 T02840142  RH  042%=      5-min Rain = 0
KSB1 111905Z 17012KT 29/14 A3019 RMK A01 T02850143  RH  042%=      5-min Rain = 0
KSB1 111906Z 17009KT 29/14 A3019 RMK A01 T02860144  RH  042%=      5-min Rain = 0
KSB1 111907Z 18010G15KT 29/14 A3019 RMK A01 T02860142  RH  041%=      5-min Rain = 0
KSB1 111908Z 18011KT 29/14 A3019 RMK A01 T02860144  RH  042%=      5-min Rain = 0
KSB1 111909Z 18009KT 29/14 A3019 RMK A01 T02870143  RH  041%=      5-min Rain = 0
KSB1 111910Z 16008KT 29/14 A3019 RMK A01 T02860142  RH  041%=      5-min Rain = 0
KSB1 111911Z 16005KT 29/14 A3019 RMK A01 T02850141  RH  041%=      5-min Rain = 0
KSB1 111912Z 19004KT 29/14 A3019 RMK A01 T02850141  RH  042%=      5-min Rain = 0
KSB1 111913Z 18010KT 29/14 A3019 RMK A01 T02870144  RH  041%=      5-min Rain = 0
KSB1 111914Z 16010KT 29/14 A3019 RMK A01 T02930143  RH  040%=      5-min Rain = 0
KSB1 111915Z 17010KT 30/14 A3019 RMK A01 T02950139  RH  039%=      5-min Rain = 0
KSB1 111916Z 19010KT 29/14 A3019 RMK A01 T02920138  RH  039%=      5-min Rain = 0
KSB1 111917Z 18011KT 29/14 A3018 RMK A01 T02920137  RH  039%=      5-min Rain = 0
KSB1 111918Z 19011KT 29/14 A3018 RMK A01 T02930138  RH  039%=      5-min Rain = 0
KSB1 111919Z 20010KT 29/14 A3018 RMK A01 T02900137  RH  039%=      5-min Rain = 0
KSB1 111920Z 19009KT 29/14 A3018 RMK A01 T02870137  RH  040%=      5-min Rain = 0
KSB1 111921Z 18011KT 29/14 A3018 RMK A01 T02870138  RH  040%=      5-min Rain = 0
KSB1 111922Z 19011KT 29/14 A3018 RMK A01 T02880136  RH  039%=      5-min Rain = 0
KSB1 111923Z 17010KT 29/14 A3018 RMK A01 T02880136  RH  039%=      5-min Rain = 0
KSB1 111924Z 19010KT 29/14 A3018 RMK A01 T02940141  RH  039%=      5-min Rain = 0
KSB1 111925Z 19010KT 30/14 A3018 RMK A01 T02970138  RH  038%=      5-min Rain = 0
KSB1 111926Z 19009KT 29/14 A3018 RMK A01 T02930138  RH  039%=      5-min Rain = 0
KSB1 111927Z 17007KT 29/14 A3018 RMK A01 T02900137  RH  039%=      5-min Rain = 0
KSB1 111928Z 18005KT 29/14 A3018 RMK A01 T02890137  RH  039%=      5-min Rain = 0
KSB1 111929Z 15011KT 29/14 A3018 RMK A01 T02890136  RH  039%=      5-min Rain = 0
KSB1 111930Z 15013KT 29/14 A3018 RMK A01 T02910135  RH  038%=      5-min Rain = 0
KSB1 111931Z 14009KT 30/14 A3018 RMK A01 T02950135  RH  038%=      5-min Rain = 0
KSB1 111932Z 13008KT 30/13 A3018 RMK A01 T02950134  RH  037%=      5-min Rain = 0
KSB1 111933Z 14011KT 30/14 A3018 RMK A01 T02950136  RH  038%=      5-min Rain = 0
KSB1 111934Z 16011KT 30/14 A3017 RMK A01 T02960136  RH  038%=      5-min Rain = 0
KSB1 111935Z 16010KT 30/14 A3017 RMK A01 T02950136  RH  038%=      5-min Rain = 0
KSB1 111936Z 18014KT 29/14 A3017 RMK A01 T02940137  RH  038%=      5-min Rain = 0
KSB1 111937Z 19010KT 29/14 A3017 RMK A01 T02940136  RH  038%=      5-min Rain = 0
KSB1 111938Z 15009KT 30/14 A3017 RMK A01 T02970136  RH  037%=      5-min Rain = 0
KSB1 111939Z 16006KT 30/13 A3017 RMK A01 T02990132  RH  036%=      5-min Rain = 0
KSB1 111940Z 16008KT 30/14 A3017 RMK A01 T02970136  RH  037%=      5-min Rain = 0
KSB1 111941Z 17012KT 30/14 A3017 RMK A01 T03000137  RH  037%=      5-min Rain = 0
KSB1 111942Z 18014KT 30/13 A3017 RMK A01 T03020133  RH  036%=      5-min Rain = 0
KSB1 111943Z 18014KT 30/13 A3017 RMK A01 T02980128  RH  035%=      5-min Rain = 0
KSB1 111944Z 19012KT 30/13 A3017 RMK A01 T02960131  RH  036%=      5-min Rain = 0
KSB1 111945Z 18012KT 30/13 A3017 RMK A01 T02950132  RH  037%=      5-min Rain = 0
KSB1 111946Z 18009KT 29/13 A3017 RMK A01 T02940130  RH  037%=      5-min Rain = 0
KSB1 111947Z 19006KT 29/13 A3017 RMK A01 T02930130  RH  037%=      5-min Rain = 0
KSB1 111948Z 18006KT 29/13 A3017 RMK A01 T02900131  RH  037%=      5-min Rain = 0
KSB1 111949Z 18006KT 29/14 A3017 RMK A01 T02900135  RH  039%=      5-min Rain = 0
KSB1 111950Z 16007KT 29/13 A3017 RMK A01 T02940134  RH  038%=      5-min Rain = 0
KSB1 111951Z 15010KT 30/13 A3017 RMK A01 T02970134  RH  037%=      5-min Rain = 0
KSB1 111952Z 16015KT 30/13 A3016 RMK A01 T02990132  RH  036%=      5-min Rain = 0
KSB1 111953Z 16014KT 30/13 A3016 RMK A01 T03000129  RH  035%=      5-min Rain = 0
KSB1 111954Z 17014KT 30/13 A3016 RMK A01 T03000128  RH  035%=      5-min Rain = 0
KSB1 111955Z 16011KT 30/13 A3016 RMK A01 T02960127  RH  035%=      5-min Rain = 0
KSB1 111956Z 13008KT 29/13 A3017 RMK A01 T02940128  RH  036%=      5-min Rain = 0
KSB1 111957Z 14006KT 30/13 A3016 RMK A01 T02960127  RH  036%=      5-min Rain = 0
KSB1 111958Z 16010KT 30/13 A3016 RMK A01 T02960129  RH  036%=      5-min Rain = 0
KSB1 111959Z 19009KT 30/13 A3016 RMK A01 T02960127  RH  035%=      5-min Rain = 0
KSB1 112000Z 19014KT 30/13 A3016 RMK A01 T02960131  RH  036%=      5-min Rain = 0
KSB1 112001Z 17012KT 30/13 A3016 RMK A01 T02970133  RH  037%=      5-min Rain = 0
KSB1 112002Z 18011KT 30/13 A3016 RMK A01 T02980134  RH  037%=      5-min Rain = 0
KSB1 112003Z 16008KT 30/14 A3017 RMK A01 T02970136  RH  037%=      5-min Rain = 0
KSB1 112004Z 17010KT 30/13 A3016 RMK A01 T03020134  RH  036%=      5-min Rain = 0
KSB1 112005Z 16009KT 31/14 A3016 RMK A01 T03050135  RH  035%=      5-min Rain = 0
KSB1 112006Z 15009KT 31/13 A3017 RMK A01 T03060132  RH  034%=      5-min Rain = 0
KSB1 112007Z 14009KT 31/13 A3017 RMK A01 T03080130  RH  034%=      5-min Rain = 0
KSB1 112008Z 16009KT 31/13 A3017 RMK A01 T03060130  RH  034%=      5-min Rain = 0
KSB1 112009Z 15008KT 30/13 A3017 RMK A01 T03040129  RH  034%=      5-min Rain = 0
KSB1 112010Z 14006KT 30/13 A3017 RMK A01 T03010126  RH  034%=      5-min Rain = 0
KSB1 112011Z 16009G14KT 30/13 A3017 RMK A01 T03010125  RH  034%=      5-min Rain = 0
KSB1 112012Z 15007KT 30/13 A3017 RMK A01 T03010130  RH  035%=      5-min Rain = 0
KSB1 112013Z 14009KT 30/13 A3016 RMK A01 T03020130  RH  035%=      5-min Rain = 0
KSB1 112014Z 16009KT 30/13 A3016 RMK A01 T03020131  RH  035%=      5-min Rain = 0
KSB1 112015Z 16011KT 30/13 A3016 RMK A01 T03030131  RH  035%=      5-min Rain = 0
KSB1 112016Z 18009KT 30/13 A3016 RMK A01 T03030129  RH  034%=      5-min Rain = 0
KSB1 112017Z 21010KT 30/13 A3016 RMK A01 T03020126  RH  034%=      5-min Rain = 0
KSB1 112018Z 21013KT 30/13 A3016 RMK A01 T03020126  RH  034%=      5-min Rain = 0
KSB1 112019Z 21014KT 30/13 A3016 RMK A01 T03000126  RH  034%=      5-min Rain = 0
KSB1 112020Z 21012KT 30/13 A3015 RMK A01 T02990125  RH  034%=      5-min Rain = 0
KSB1 112021Z 21011KT 30/13 A3015 RMK A01 T02980127  RH  035%=      5-min Rain = 0
KSB1 112022Z 22009KT 30/13 A3015 RMK A01 T02990127  RH  035%=      5-min Rain = 0
KSB1 112023Z 21010KT 30/13 A3015 RMK A01 T03020126  RH  034%=      5-min Rain = 0
KSB1 112024Z 22012KT 30/12 A3015 RMK A01 T03030121  RH  033%=      5-min Rain = 0
KSB1 112025Z 23012KT 30/12 A3015 RMK A01 T03010115  RH  032%=      5-min Rain = 0
KSB1 112026Z 23009KT 30/12 A3015 RMK A01 T02980120  RH  033%=      5-min Rain = 0
KSB1 112027Z 19007KT 30/12 A3015 RMK A01 T02990124  RH  034%=      5-min Rain = 0
KSB1 112028Z 16007KT 30/13 A3015 RMK A01 T02990127  RH  035%=      5-min Rain = 0
KSB1 112029Z 18008KT 30/13 A3015 RMK A01 T02980129  RH  035%=      5-min Rain = 0
KSB1 112030Z 20007KT 30/13 A3015 RMK A01 T02970129  RH  036%=      5-min Rain = 0
KSB1 112031Z 20007KT 30/13 A3015 RMK A01 T02950129  RH  036%=      5-min Rain = 0
KSB1 112032Z 19008G14KT 30/13 A3015 RMK A01 T02950128  RH  036%=      5-min Rain = 0
KSB1 112033Z 19011KT 30/13 A3015 RMK A01 T02960129  RH  036%=      5-min Rain = 0
KSB1 112034Z 20008KT 30/13 A3015 RMK A01 T02970130  RH  036%=      5-min Rain = 0
KSB1 112035Z 20007KT 30/13 A3015 RMK A01 T02990132  RH  036%=      5-min Rain = 0
KSB1 112036Z 18009KT 30/13 A3015 RMK A01 T03010129  RH  035%=      5-min Rain = 0
KSB1 112037Z 16010KT 30/12 A3015 RMK A01 T03000119  RH  033%=      5-min Rain = 0
KSB1 112038Z 15010KT 30/12 A3015 RMK A01 T02990116  RH  032%=      5-min Rain = 0
KSB1 112039Z 15010KT 30/12 A3015 RMK A01 T03000117  RH  032%=      5-min Rain = 0
KSB1 112040Z 16008KT 30/12 A3015 RMK A01 T02990121  RH  033%=      5-min Rain = 0
KSB1 112041Z 15007KT 30/12 A3015 RMK A01 T02990122  RH  034%=      5-min Rain = 0
KSB1 112042Z 15007KT 30/13 A3015 RMK A01 T03000126  RH  034%=      5-min Rain = 0
KSB1 112043Z 16007KT 30/13 A3015 RMK A01 T03000130  RH  035%=      5-min Rain = 0
KSB1 112044Z 19008KT 30/13 A3015 RMK A01 T02970130  RH  036%=      5-min Rain = 0
KSB1 112045Z 20006KT 29/13 A3015 RMK A01 T02940128  RH  036%=      5-min Rain = 0
KSB1 112046Z 22006KT 29/13 A3015 RMK A01 T02910129  RH  037%=      5-min Rain = 0
KSB1 112047Z 21009KT 29/13 A3015 RMK A01 T02930130  RH  037%=      5-min Rain = 0
KSB1 112048Z 20006KT 29/13 A3014 RMK A01 T02920131  RH  037%=      5-min Rain = 0
KSB1 112049Z 19006KT 29/13 A3014 RMK A01 T02910134  RH  038%=      5-min Rain = 0
KSB1 112050Z 19007KT 29/13 A3014 RMK A01 T02940133  RH  037%=      5-min Rain = 0
KSB1 112051Z 21006KT 30/13 A3014 RMK A01 T02950132  RH  037%=      5-min Rain = 0
KSB1 112052Z 21007KT 29/14 A3014 RMK A01 T02940135  RH  038%=      5-min Rain = 0
KSB1 112053Z 22009KT 30/14 A3014 RMK A01 T02960137  RH  038%=      5-min Rain = 0
KSB1 112054Z 19011KT 30/14 A3014 RMK A01 T02970138  RH  038%=      5-min Rain = 0
KSB1 112055Z 18009KT 30/14 A3014 RMK A01 T02950136  RH  038%=      5-min Rain = 0
KSB1 112056Z 19011KT 29/14 A3014 RMK A01 T02940137  RH  038%=      5-min Rain = 0
KSB1 112057Z 18008KT 29/14 A3014 RMK A01 T02920137  RH  039%=      5-min Rain = 0
KSB1 112058Z 17006KT 29/14 A3014 RMK A01 T02910137  RH  039%=      5-min Rain = 0
KSB1 112059Z 19008KT 29/14 A3013 RMK A01 T02900137  RH  039%=      5-min Rain = 0
KSB1 112100Z 21013KT 29/14 A3013 RMK A01 T02900141  RH  040%=      5-min Rain = 0
KSB1 112101Z 22012KT 29/14 A3013 RMK A01 T02880144  RH  041%=      5-min Rain = 0
KSB1 112102Z 22013KT 29/14 A3013 RMK A01 T02860144  RH  042%=      5-min Rain = 0
KSB1 112103Z 20013KT 29/14 A3013 RMK A01 T02860144  RH  042%=      5-min Rain = 0
KSB1 112104Z 22011KT 29/14 A3013 RMK A01 T02850144  RH  042%=      5-min Rain = 0
KSB1 112105Z 19011KT 29/14 A3013 RMK A01 T02880144  RH  041%=      5-min Rain = 0
KSB1 112106Z 20011KT 29/14 A3013 RMK A01 T02910141  RH  040%=      5-min Rain = 0
KSB1 112107Z 21013KT 29/14 A3013 RMK A01 T02920142  RH  040%=      5-min Rain = 0
KSB1 112108Z 22014G19KT 29/14 A3013 RMK A01 T02900142  RH  040%=      5-min Rain = 0
KSB1 112109Z 22015KT 29/14 A3013 RMK A01 T02870142  RH  041%=      5-min Rain = 0
KSB1 112110Z 22014KT 29/14 A3013 RMK A01 T02860141  RH  041%=      5-min Rain = 0
KSB1 112111Z 21014KT 29/14 A3013 RMK A01 T02850142  RH  042%=      5-min Rain = 0
KSB1 112112Z 22014KT 29/14 A3013 RMK A01 T02860143  RH  042%=      5-min Rain = 0
KSB1 112113Z 23013KT 29/14 A3013 RMK A01 T02860143  RH  042%=      5-min Rain = 0
KSB1 112114Z 21013KT 29/14 A3013 RMK A01 T02870144  RH  042%=      5-min Rain = 0
KSB1 112115Z 20011KT 29/14 A3014 RMK A01 T02870144  RH  042%=      5-min Rain = 0
KSB1 112116Z 22011KT 29/15 A3013 RMK A01 T02870145  RH  042%=      5-min Rain = 0
KSB1 112117Z 21014KT 29/14 A3013 RMK A01 T02880144  RH  041%=      5-min Rain = 0
KSB1 112118Z 21012KT 29/14 A3014 RMK A01 T02860142  RH  041%=      5-min Rain = 0
KSB1 112119Z 20011KT 29/14 A3014 RMK A01 T02850142  RH  042%=      5-min Rain = 0
KSB1 112120Z 20013KT 29/14 A3014 RMK A01 T02850142  RH  042%=      5-min Rain = 0
KSB1 112121Z 22013KT 29/14 A3013 RMK A01 T02850143  RH  042%=      5-min Rain = 0
KSB1 112122Z 21013KT 28/15 A3013 RMK A01 T02840145  RH  043%=      5-min Rain = 0
KSB1 112123Z 21015KT 28/15 A3013 RMK A01 T02830145  RH  043%=      5-min Rain = 0
KSB1 112124Z 21013KT 28/15 A3013 RMK A01 T02820146  RH  044%=      5-min Rain = 0
KSB1 112125Z 21011KT 28/15 A3013 RMK A01 T02810147  RH  044%=      5-min Rain = 0
KSB1 112126Z 20011KT 28/15 A3013 RMK A01 T02810146  RH  044%=      5-min Rain = 0
KSB1 112127Z 21012KT 28/15 A3013 RMK A01 T02810147  RH  044%=      5-min Rain = 0
KSB1 112128Z 21012KT 28/15 A3014 RMK A01 T02800147  RH  044%=      5-min Rain = 0
KSB1 112129Z 21010KT 28/15 A3014 RMK A01 T02800147  RH  044%=      5-min Rain = 0
KSB1 112130Z 21011KT 28/15 A3014 RMK A01 T02810150  RH  045%=      5-min Rain = 0
KSB1 112131Z 22010KT 28/15 A3014 RMK A01 T02810151  RH  045%=      5-min Rain = 0
KSB1 112132Z 23010KT 28/15 A3014 RMK A01 T02820152  RH  045%=      5-min Rain = 0
KSB1 112133Z 22009KT 28/15 A3014 RMK A01 T02820154  RH  046%=      5-min Rain = 0
KSB1 112134Z 22009KT 28/15 A3014 RMK A01 T02810153  RH  046%=      5-min Rain = 0
KSB1 112135Z 21010KT 28/16 A3014 RMK A01 T02820156  RH  046%=      5-min Rain = 0
KSB1 112136Z 21011KT 28/16 A3013 RMK A01 T02830157  RH  047%=      5-min Rain = 0
KSB1 112137Z 23009KT 28/16 A3013 RMK A01 T02800156  RH  047%=      5-min Rain = 0
KSB1 112138Z 22008KT 28/15 A3013 RMK A01 T02790153  RH  046%=      5-min Rain = 0
KSB1 112139Z 21009KT 28/15 A3013 RMK A01 T02800153  RH  046%=      5-min Rain = 0
KSB1 112140Z 22011KT 28/15 A3013 RMK A01 T02820153  RH  045%=      5-min Rain = 0
KSB1 112141Z 22009KT 28/15 A3013 RMK A01 T02830151  RH  045%=      5-min Rain = 0
KSB1 112142Z 22010KT 29/15 A3013 RMK A01 T02850150  RH  044%=      5-min Rain = 0
KSB1 112143Z 22011KT 28/15 A3013 RMK A01 T02840151  RH  044%=      5-min Rain = 0
KSB1 112144Z 23010KT 28/15 A3013 RMK A01 T02820150  RH  044%=      5-min Rain = 0
KSB1 112145Z 23010KT 28/15 A3013 RMK A01 T02800146  RH  044%=      5-min Rain = 0
KSB1 112146Z 22009KT 28/15 A3013 RMK A01 T02790149  RH  045%=      5-min Rain = 0
KSB1 112147Z 22011KT 28/15 A3013 RMK A01 T02810149  RH  045%=      5-min Rain = 0
KSB1 112148Z 21011KT 28/15 A3013 RMK A01 T02810145  RH  043%=      5-min Rain = 0
KSB1 112149Z 22012KT 28/15 A3013 RMK A01 T02810148  RH  044%=      5-min Rain = 0
KSB1 112150Z 22009KT 28/15 A3013 RMK A01 T02820147  RH  044%=      5-min Rain = 0
KSB1 112151Z 22010KT 28/15 A3013 RMK A01 T02830146  RH  043%=      5-min Rain = 0
KSB1 112152Z 23011KT 28/15 A3013 RMK A01 T02820149  RH  044%=      5-min Rain = 0
KSB1 112153Z 23012KT 28/15 A3013 RMK A01 T02820149  RH  044%=      5-min Rain = 0
KSB1 112154Z 23011KT 28/15 A3013 RMK A01 T02830149  RH  044%=      5-min Rain = 0
KSB1 112155Z 23013KT 28/15 A3013 RMK A01 T02830145  RH  043%=      5-min Rain = 0
KSB1 112156Z 21012KT 28/15 A3013 RMK A01 T02830149  RH  044%=      5-min Rain = 0
KSB1 112157Z 21010KT 28/15 A3013 RMK A01 T02810152  RH  045%=      5-min Rain = 0
KSB1 112158Z 22009KT 28/15 A3013 RMK A01 T02800152  RH  046%=      5-min Rain = 0
KSB1 112159Z 24008KT 28/15 A3013 RMK A01 T02800150  RH  045%=      5-min Rain = 0
KSB1 112200Z 24007KT 28/15 A3013 RMK A01 T02810150  RH  045%=      5-min Rain = 0
KSB1 112201Z 24012KT 28/15 A3012 RMK A01 T02830152  RH  045%=      5-min Rain = 0
KSB1 112202Z 24013KT 28/15 A3012 RMK A01 T02820151  RH  045%=      5-min Rain = 0
KSB1 112203Z 23012KT 28/15 A3012 RMK A01 T02810150  RH  045%=      5-min Rain = 0
KSB1 112204Z 23010KT 28/15 A3012 RMK A01 T02810152  RH  046%=      5-min Rain = 0
KSB1 112205Z 24010KT 28/15 A3012 RMK A01 T02810151  RH  045%=      5-min Rain = 0
KSB1 112206Z 23011KT 28/15 A3012 RMK A01 T02830152  RH  045%=      5-min Rain = 0
KSB1 112207Z 22011KT 28/15 A3012 RMK A01 T02830151  RH  045%=      5-min Rain = 0
KSB1 112208Z 22012KT 28/15 A3012 RMK A01 T02820148  RH  044%=      5-min Rain = 0
KSB1 112209Z 21011KT 28/14 A3012 RMK A01 T02830137  RH  041%=      5-min Rain = 0
KSB1 112210Z 21013KT 28/14 A3012 RMK A01 T02840135  RH  040%=      5-min Rain = 0
KSB1 112211Z 21012KT 29/13 A3012 RMK A01 T02850132  RH  039%=      5-min Rain = 0
KSB1 112212Z 21013KT 29/13 A3012 RMK A01 T02850132  RH  039%=      5-min Rain = 0
KSB1 112213Z 21013KT 29/13 A3012 RMK A01 T02850128  RH  038%=      5-min Rain = 0
KSB1 112214Z 20010KT 29/13 A3012 RMK A01 T02850131  RH  039%=      5-min Rain = 0
KSB1 112215Z 20013KT 29/13 A3012 RMK A01 T02870134  RH  039%=      5-min Rain = 0
KSB1 112216Z 20012KT 29/13 A3012 RMK A01 T02870134  RH  039%=      5-min Rain = 0
KSB1 112217Z 20014KT 29/13 A3012 RMK A01 T02860134  RH  039%=      5-min Rain = 0
KSB1 112218Z 21011KT 29/13 A3012 RMK A01 T02870130  RH  038%=      5-min Rain = 0
KSB1 112219Z 21013KT 29/13 A3012 RMK A01 T02880128  RH  037%=      5-min Rain = 0
KSB1 112220Z 21012KT 29/13 A3012 RMK A01 T02870126  RH  037%=      5-min Rain = 0
KSB1 112221Z 21012KT 29/12 A3011 RMK A01 T02870122  RH  036%=      5-min Rain = 0
KSB1 112222Z 21011KT 29/12 A3011 RMK A01 T02870121  RH  036%=      5-min Rain = 0
KSB1 112223Z 20013KT 29/12 A3011 RMK A01 T02870117  RH  035%=      5-min Rain = 0
KSB1 112224Z 20012KT 29/12 A3011 RMK A01 T02870117  RH  035%=      5-min Rain = 0
KSB1 112225Z 21014KT 29/12 A3011 RMK A01 T02860118  RH  035%=      5-min Rain = 0
KSB1 112226Z 21011KT 29/12 A3011 RMK A01 T02860116  RH  035%=      5-min Rain = 0
KSB1 112227Z 21012KT 29/12 A3011 RMK A01 T02860117  RH  035%=      5-min Rain = 0
KSB1 112228Z 21012KT 29/12 A3011 RMK A01 T02860118  RH  035%=      5-min Rain = 0
KSB1 112229Z 21013KT 29/12 A3011 RMK A01 T02870118  RH  035%=      5-min Rain = 0
KSB1 112230Z 21012KT 29/12 A3011 RMK A01 T02860117  RH  035%=      5-min Rain = 0
KSB1 112231Z 21010KT 29/12 A3011 RMK A01 T02860119  RH  036%=      5-min Rain = 0
KSB1 112232Z 19010KT 29/12 A3011 RMK A01 T02870120  RH  036%=      5-min Rain = 0
KSB1 112233Z 19011KT 29/12 A3011 RMK A01 T02890120  RH  035%=      5-min Rain = 0
KSB1 112234Z 20012KT 29/12 A3011 RMK A01 T02900120  RH  035%=      5-min Rain = 0
KSB1 112235Z 20011KT 29/12 A3011 RMK A01 T02890120  RH  035%=      5-min Rain = 0
KSB1 112236Z 21011KT 29/12 A3011 RMK A01 T02860121  RH  036%=      5-min Rain = 0
KSB1 112237Z 19011KT 29/13 A3011 RMK A01 T02860125  RH  037%=      5-min Rain = 0
KSB1 112238Z 19011KT 29/13 A3011 RMK A01 T02860125  RH  037%=      5-min Rain = 0
KSB1 112239Z 20010KT 29/13 A3011 RMK A01 T02870127  RH  037%=      5-min Rain = 0
KSB1 112240Z 20010KT 29/13 A3011 RMK A01 T02870129  RH  038%=      5-min Rain = 0
KSB1 112241Z 20011KT 29/13 A3011 RMK A01 T02880129  RH  038%=      5-min Rain = 0
KSB1 112242Z 18010KT 29/13 A3011 RMK A01 T02880127  RH  037%=      5-min Rain = 0
KSB1 112243Z 19012KT 29/13 A3011 RMK A01 T02890127  RH  037%=      5-min Rain = 0
KSB1 112244Z 19012KT 29/13 A3011 RMK A01 T02890128  RH  037%=      5-min Rain = 0
KSB1 112245Z 19010KT 29/13 A3011 RMK A01 T02890129  RH  038%=      5-min Rain = 0
KSB1 112246Z 20012KT 29/13 A3011 RMK A01 T02880130  RH  038%=      5-min Rain = 0
KSB1 112247Z 20011KT 29/13 A3011 RMK A01 T02870131  RH  038%=      5-min Rain = 0
KSB1 112248Z 19013KT 29/13 A3011 RMK A01 T02870133  RH  039%=      5-min Rain = 0
KSB1 112249Z 20014KT 29/13 A3011 RMK A01 T02870133  RH  039%=      5-min Rain = 0
KSB1 112250Z 19014KT 29/13 A3011 RMK A01 T02870134  RH  039%=      5-min Rain = 0
KSB1 112251Z 19014KT 29/14 A3011 RMK A01 T02870135  RH  039%=      5-min Rain = 0
KSB1 112252Z 19013KT 29/14 A3011 RMK A01 T02870136  RH  040%=      5-min Rain = 0
KSB1 112253Z 19013KT 29/14 A3011 RMK A01 T02870136  RH  039%=      5-min Rain = 0
KSB1 112254Z 19012KT 29/14 A3011 RMK A01 T02860137  RH  040%=      5-min Rain = 0
KSB1 112255Z 18012KT 29/14 A3011 RMK A01 T02870138  RH  040%=      5-min Rain = 0
KSB1 112256Z 19013KT 29/14 A3011 RMK A01 T02880136  RH  039%=      5-min Rain = 0
KSB1 112257Z 19012KT 29/14 A3011 RMK A01 T02860137  RH  040%=      5-min Rain = 0
KSB1 112258Z 19011KT 29/14 A3011 RMK A01 T02870138  RH  040%=      5-min Rain = 0
KSB1 112259Z 18013KT 29/14 A3011 RMK A01 T02870139  RH  040%=      5-min Rain = 0
KSB1 112300Z 19013KT 29/14 A3011 RMK A01 T02870140  RH  041%=      5-min Rain = 0
KSB1 112301Z 19014KT 29/14 A3011 RMK A01 T02870140  RH  041%=      5-min Rain = 0
KSB1 112302Z 18011KT 29/14 A3012 RMK A01 T02860140  RH  041%=      5-min Rain = 0
KSB1 112303Z 17011KT 29/14 A3012 RMK A01 T02870141  RH  041%=      5-min Rain = 0
KSB1 112304Z 19009KT 29/14 A3012 RMK A01 T02870141  RH  041%=      5-min Rain = 0
KSB1 112305Z 19010KT 29/14 A3012 RMK A01 T02860142  RH  041%=      5-min Rain = 0
KSB1 112306Z 20009KT 29/14 A3012 RMK A01 T02850142  RH  042%=      5-min Rain = 0
KSB1 112307Z 21011KT 29/14 A3012 RMK A01 T02860143  RH  042%=      5-min Rain = 0
KSB1 112308Z 19009KT 29/14 A3012 RMK A01 T02850143  RH  042%=      5-min Rain = 0
KSB1 112309Z 19009KT 29/14 A3012 RMK A01 T02850142  RH  042%=      5-min Rain = 0
KSB1 112310Z 17010KT 29/14 A3012 RMK A01 T02850143  RH  042%=      5-min Rain = 0
KSB1 112311Z 16010KT 29/14 A3012 RMK A01 T02860143  RH  041%=      5-min Rain = 0
KSB1 112312Z 18007KT 29/14 A3012 RMK A01 T02870143  RH  041%=      5-min Rain = 0
KSB1 112313Z 19010KT 29/15 A3012 RMK A01 T02880145  RH  042%=      5-min Rain = 0
KSB1 112314Z 19009KT 29/14 A3012 RMK A01 T02880144  RH  041%=      5-min Rain = 0
KSB1 112315Z 18009KT 29/15 A3012 RMK A01 T02880145  RH  042%=      5-min Rain = 0
KSB1 112316Z 17007KT 29/14 A3012 RMK A01 T02870144  RH  042%=      5-min Rain = 0
KSB1 112317Z 17008KT 29/15 A3012 RMK A01 T02870145  RH  042%=      5-min Rain = 0
KSB1 112318Z 20009KT 29/14 A3012 RMK A01 T02880144  RH  041%=      5-min Rain = 0
KSB1 112319Z 17008KT 29/14 A3012 RMK A01 T02880144  RH  041%=      5-min Rain = 0
KSB1 112320Z 18007KT 29/14 A3012 RMK A01 T02880143  RH  041%=      5-min Rain = 0
KSB1 112321Z 17009KT 29/14 A3012 RMK A01 T02870143  RH  041%=      5-min Rain = 0
KSB1 112322Z 17008KT 29/14 A3012 RMK A01 T02880142  RH  041%=      5-min Rain = 0
KSB1 112323Z 16006KT 29/14 A3012 RMK A01 T02860142  RH  041%=      5-min Rain = 0
KSB1 112324Z 16006KT 29/14 A3012 RMK A01 T02860143  RH  042%=      5-min Rain = 0
KSB1 112325Z 15007KT 29/14 A3012 RMK A01 T02870143  RH  041%=      5-min Rain = 0
KSB1 112326Z 12009G17KT 29/14 A3013 RMK A01 T02870144  RH  042%=      5-min Rain = 0
KSB1 112327Z 07014KT 29/15 A3013 RMK A01 T02860148  RH  043%=      5-min Rain = 0
KSB1 112328Z 07016KT 27/15 A3013 RMK A01 T02730149  RH  047%=      5-min Rain = 0
KSB1 112329Z 07013KT 26/15 A3013 RMK A01 T02610148  RH  050%=      5-min Rain = 0
KSB1 112330Z 07010KT 25/15 A3013 RMK A01 T02540148  RH  052%=      5-min Rain = 0
KSB1 112331Z 07008KT 25/15 A3013 RMK A01 T02510149  RH  053%=      5-min Rain = 0
KSB1 112332Z 07008KT 25/15 A3013 RMK A01 T02500150  RH  054%=      5-min Rain = 0
KSB1 112333Z 08013G18KT 25/15 A3013 RMK A01 T02520151  RH  053%=      5-min Rain = 0
KSB1 112334Z 08015KT 26/15 A3013 RMK A01 T02550150  RH  052%=      5-min Rain = 0
KSB1 112335Z 07014KT 26/15 A3013 RMK A01 T02570151  RH  052%=      5-min Rain = 0
KSB1 112336Z 06014KT 26/15 A3013 RMK A01 T02570149  RH  051%=      5-min Rain = 0
KSB1 112337Z 06012KT 26/15 A3013 RMK A01 T02560149  RH  052%=      5-min Rain = 0
KSB1 112338Z 06011KT 26/15 A3013 RMK A01 T02560149  RH  051%=      5-min Rain = 0
KSB1 112339Z 07011KT 26/15 A3013 RMK A01 T02570146  RH  050%=      5-min Rain = 0
KSB1 112340Z 07011KT 26/15 A3013 RMK A01 T02590146  RH  050%=      5-min Rain = 0
KSB1 112341Z 07009KT 26/15 A3013 RMK A01 T02600146  RH  049%=      5-min Rain = 0
KSB1 112342Z 06010KT 26/15 A3012 RMK A01 T02610146  RH  049%=      5-min Rain = 0
KSB1 112343Z 07009KT 26/15 A3012 RMK A01 T02630147  RH  049%=      5-min Rain = 0
KSB1 112344Z 07011KT 27/15 A3012 RMK A01 T02670146  RH  047%=      5-min Rain = 0
KSB1 112345Z 07011KT 27/15 A3012 RMK A01 T02670145  RH  047%=      5-min Rain = 0
KSB1 112346Z 07011KT 27/15 A3012 RMK A01 T02670146  RH  047%=      5-min Rain = 0
KSB1 112347Z 07010KT 27/15 A3012 RMK A01 T02670146  RH  047%=      5-min Rain = 0
KSB1 112348Z 08010KT 27/15 A3012 RMK A01 T02680146  RH  047%=      5-min Rain = 0
KSB1 112349Z 07012KT 27/14 A3012 RMK A01 T02690144  RH  046%=      5-min Rain = 0
KSB1 112350Z 07013KT 27/14 A3012 RMK A01 T02680142  RH  046%=      5-min Rain = 0
KSB1 112351Z 07011KT 27/14 A3012 RMK A01 T02680142  RH  046%=      5-min Rain = 0
KSB1 112352Z 07010KT 27/14 A3012 RMK A01 T02680142  RH  046%=      5-min Rain = 0
KSB1 112353Z 08012KT 27/14 A3012 RMK A01 T02690143  RH  046%=      5-min Rain = 0
KSB1 112354Z 08012KT 27/14 A3012 RMK A01 T02710141  RH  045%=      5-min Rain = 0
KSB1 112355Z 08011KT 27/14 A3012 RMK A01 T02720141  RH  045%=      5-min Rain = 0
KSB1 112356Z 08012KT 27/14 A3012 RMK A01 T02730141  RH  044%=      5-min Rain = 0
KSB1 112357Z 08012KT 27/14 A3012 RMK A01 T02730140  RH  044%=      5-min Rain = 0
KSB1 112358Z 07010KT 27/14 A3012 RMK A01 T02730141  RH  044%=      5-min Rain = 0
KSB1 112359Z 07009KT 28/14 A3012 RMK A01 T02750141  RH  044%=      5-min Rain = 0
KSB1 120000Z 08009KT 28/14 A3012 RMK A01 T02760142  RH  044%=      5-min Rain = 0
KSB1 120001Z 08011KT 28/14 A3012 RMK A01 T02780142  RH  043%=      5-min Rain = 0
KSB1 120002Z 08010KT 28/14 A3012 RMK A01 T02780141  RH  043%=      5-min Rain = 0
KSB1 120003Z 09010KT 28/14 A3012 RMK A01 T02770142  RH  043%=      5-min Rain = 0
KSB1 120004Z 09007KT 28/14 A3012 RMK A01 T02770141  RH  043%=      5-min Rain = 0
KSB1 120005Z 09007G12KT 28/14 A3012 RMK A01 T02770143  RH  044%=      5-min Rain = 0
KSB1 120006Z 08010KT 28/14 A3012 RMK A01 T02790143  RH  043%=      5-min Rain = 0
KSB1 120007Z 07011KT 28/14 A3012 RMK A01 T02800142  RH  043%=      5-min Rain = 0
KSB1 120008Z 08012KT 28/14 A3012 RMK A01 T02800140  RH  042%=      5-min Rain = 0
KSB1 120009Z 08011KT 28/14 A3012 RMK A01 T02790141  RH  043%=      5-min Rain = 0
KSB1 120010Z 09011KT 28/14 A3012 RMK A01 T02780141  RH  043%=      5-min Rain = 0
KSB1 120011Z 08011KT 28/14 A3012 RMK A01 T02770141  RH  043%=      5-min Rain = 0
KSB1 120012Z 09011KT 28/14 A3012 RMK A01 T02770139  RH  043%=      5-min Rain = 0
KSB1 120013Z 10010KT 28/14 A3012 RMK A01 T02750139  RH  043%=      5-min Rain = 0
KSB1 120014Z 09010KT 27/14 A3012 RMK A01 T02740139  RH  043%=      5-min Rain = 0
KSB1 120015Z 09010KT 27/14 A3012 RMK A01 T02740139  RH  043%=      5-min Rain = 0
KSB1 120016Z 10007KT 27/14 A3012 RMK A01 T02740139  RH  043%=      5-min Rain = 0
KSB1 120017Z 10009KT 28/14 A3012 RMK A01 T02760141  RH  044%=      5-min Rain = 0
KSB1 120018Z 09009KT 28/14 A3012 RMK A01 T02770140  RH  043%=      5-min Rain = 0
KSB1 120019Z 09009KT 28/14 A3012 RMK A01 T02770140  RH  043%=      5-min Rain = 0
KSB1 120020Z 09009KT 28/14 A3012 RMK A01 T02760139  RH  043%=      5-min Rain = 0
KSB1 120021Z 08008KT 28/14 A3012 RMK A01 T02760140  RH  043%=      5-min Rain = 0
KSB1 120022Z 08008KT 28/14 A3012 RMK A01 T02760140  RH  043%=      5-min Rain = 0
KSB1 120023Z 09007KT 28/14 A3012 RMK A01 T02760139  RH  043%=      5-min Rain = 0
KSB1 120024Z 09008KT 28/14 A3012 RMK A01 T02760140  RH  043%=      5-min Rain = 0
KSB1 120025Z 09008KT 28/14 A3012 RMK A01 T02760140  RH  043%=      5-min Rain = 0
KSB1 120026Z 09007KT 28/14 A3012 RMK A01 T02760139  RH  043%=      5-min Rain = 0
KSB1 120027Z 09007KT 28/14 A3012 RMK A01 T02750141  RH  044%=      5-min Rain = 0
KSB1 120028Z 10007KT 28/14 A3012 RMK A01 T02760140  RH  043%=      5-min Rain = 0
KSB1 120029Z 09007KT 28/14 A3012 RMK A01 T02760140  RH  043%=      5-min Rain = 0
KSB1 120030Z 10009KT 28/14 A3012 RMK A01 T02770141  RH  043%=      5-min Rain = 0
KSB1 120031Z 10007KT 28/14 A3012 RMK A01 T02770140  RH  043%=      5-min Rain = 0
KSB1 120032Z 10007KT 28/14 A3012 RMK A01 T02760140  RH  043%=      5-min Rain = 0
KSB1 120033Z 08007KT 28/14 A3012 RMK A01 T02760141  RH  043%=      5-min Rain = 0
KSB1 120034Z 09009KT 28/14 A3012 RMK A01 T02760141  RH  044%=      5-min Rain = 0
KSB1 120035Z 08008KT 28/14 A3012 RMK A01 T02760142  RH  044%=      5-min Rain = 0
KSB1 120036Z 08007KT 28/14 A3012 RMK A01 T02760142  RH  044%=      5-min Rain = 0
KSB1 120037Z 08008KT 28/14 A3012 RMK A01 T02770142  RH  044%=      5-min Rain = 0
KSB1 120038Z 07010KT 28/14 A3012 RMK A01 T02770141  RH  043%=      5-min Rain = 0
KSB1 120039Z 07009KT 28/14 A3012 RMK A01 T02750141  RH  044%=      5-min Rain = 0
KSB1 120040Z 07011KT 27/14 A3012 RMK A01 T02740142  RH  044%=      5-min Rain = 0
KSB1 120041Z 08011KT 27/14 A3012 RMK A01 T02730141  RH  044%=      5-min Rain = 0
KSB1 120042Z 07010KT 27/14 A3012 RMK A01 T02720141  RH  044%=      5-min Rain = 0
KSB1 120043Z 08008KT 27/14 A3012 RMK A01 T02720141  RH  044%=      5-min Rain = 0
KSB1 120044Z 08006KT 27/14 A3012 RMK A01 T02720141  RH  045%=      5-min Rain = 0
KSB1 120045Z 08007KT 27/14 A3012 RMK A01 T02740143  RH  045%=      5-min Rain = 0
KSB1 120046Z 09007KT 28/14 A3012 RMK A01 T02750142  RH  044%=      5-min Rain = 0
KSB1 120047Z 08008KT 28/14 A3012 RMK A01 T02750141  RH  044%=      5-min Rain = 0
KSB1 120048Z 07008KT 28/14 A3012 RMK A01 T02750141  RH  044%=      5-min Rain = 0
KSB1 120049Z 08007KT 27/14 A3012 RMK A01 T02740141  RH  044%=      5-min Rain = 0
KSB1 120050Z 09007KT 27/14 A3012 RMK A01 T02740141  RH  044%=      5-min Rain = 0
KSB1 120051Z 09007KT 27/14 A3012 RMK A01 T02740142  RH  044%=      5-min Rain = 0
KSB1 120052Z 10008KT 28/14 A3012 RMK A01 T02750140  RH  043%=      5-min Rain = 0
KSB1 120053Z 10006KT 28/14 A3012 RMK A01 T02750140  RH  043%=      5-min Rain = 0
KSB1 120054Z 09007KT 28/14 A3012 RMK A01 T02760140  RH  043%=      5-min Rain = 0
KSB1 120055Z 10008KT 28/14 A3012 RMK A01 T02760139  RH  043%=      5-min Rain = 0
KSB1 120056Z 11008KT 28/14 A3012 RMK A01 T02760138  RH  043%=      5-min Rain = 0
KSB1 120057Z 11007KT 28/14 A3012 RMK A01 T02760137  RH  042%=      5-min Rain = 0
KSB1 120058Z 10007KT 28/14 A3012 RMK A01 T02750138  RH  043%=      5-min Rain = 0
KSB1 120059Z 10006KT 28/14 A3012 RMK A01 T02750138  RH  043%=      5-min Rain = 0
KSB1 120100Z 10007KT 28/14 A3012 RMK A01 T02750138  RH  043%=      5-min Rain = 0
KSB1 120101Z 11007KT 28/14 A3012 RMK A01 T02750137  RH  042%=      5-min Rain = 0
KSB1 120102Z 10006KT 28/14 A3012 RMK A01 T02750136  RH  042%=      5-min Rain = 0
KSB1 120103Z 10007KT 27/14 A3012 RMK A01 T02740137  RH  043%=      5-min Rain = 0
KSB1 120104Z 10006KT 27/14 A3012 RMK A01 T02740136  RH  043%=      5-min Rain = 0
KSB1 120105Z 10006KT 27/14 A3012 RMK A01 T02740137  RH  043%=      5-min Rain = 0
KSB1 120106Z 10006KT 27/14 A3012 RMK A01 T02740137  RH  043%=      5-min Rain = 0
KSB1 120107Z 10006KT 27/14 A3012 RMK A01 T02740138  RH  043%=      5-min Rain = 0
KSB1 120108Z 11007KT 28/14 A3012 RMK A01 T02750137  RH  043%=      5-min Rain = 0
KSB1 120109Z 11006KT 28/14 A3012 RMK A01 T02750135  RH  042%=      5-min Rain = 0
KSB1 120110Z 11006KT 28/14 A3012 RMK A01 T02750135  RH  042%=      5-min Rain = 0
KSB1 120111Z 10005KT 27/14 A3012 RMK A01 T02740135  RH  042%=      5-min Rain = 0
KSB1 120112Z 11007KT 28/14 A3012 RMK A01 T02750137  RH  043%=      5-min Rain = 0
KSB1 120113Z 10006KT 27/14 A3012 RMK A01 T02740135  RH  042%=      5-min Rain = 0
KSB1 120114Z 11005KT 28/14 A3012 RMK A01 T02750136  RH  043%=      5-min Rain = 0
KSB1 120115Z 11006KT 27/14 A3012 RMK A01 T02740136  RH  043%=      5-min Rain = 0
KSB1 120116Z 11006KT 27/14 A3012 RMK A01 T02740135  RH  042%=      5-min Rain = 0
KSB1 120117Z 11006KT 27/14 A3012 RMK A01 T02740135  RH  042%=      5-min Rain = 0
KSB1 120118Z 11006KT 27/13 A3012 RMK A01 T02730134  RH  042%=      5-min Rain = 0
KSB1 120119Z 11007KT 27/14 A3012 RMK A01 T02730135  RH  043%=      5-min Rain = 0
KSB1 120120Z 12006KT 27/14 A3012 RMK A01 T02730135  RH  043%=      5-min Rain = 0
KSB1 120121Z 12005KT 27/14 A3012 RMK A01 T02730135  RH  043%=      5-min Rain = 0
KSB1 120122Z 12004KT 27/14 A3012 RMK A01 T02730135  RH  043%=      5-min Rain = 0
KSB1 120123Z 12005KT 27/14 A3012 RMK A01 T02720136  RH  043%=      5-min Rain = 0
KSB1 120124Z 10005KT 27/14 A3012 RMK A01 T02720135  RH  043%=      5-min Rain = 0
KSB1 120125Z 11006KT 27/14 A3012 RMK A01 T02720135  RH  043%=      5-min Rain = 0
KSB1 120126Z 11005KT 27/14 A3012 RMK A01 T02720135  RH  043%=      5-min Rain = 0
KSB1 120127Z 12005KT 27/14 A3012 RMK A01 T02720136  RH  043%=      5-min Rain = 0
KSB1 120128Z 11006KT 27/14 A3012 RMK A01 T02720136  RH  043%=      5-min Rain = 0
KSB1 120129Z 10007KT 27/14 A3012 RMK A01 T02720136  RH  043%=      5-min Rain = 0
KSB1 120130Z 10007KT 27/14 A3012 RMK A01 T02720135  RH  043%=      5-min Rain = 0
KSB1 120131Z 10006KT 27/14 A3012 RMK A01 T02710136  RH  043%=      5-min Rain = 0
KSB1 120132Z 10007KT 27/14 A3012 RMK A01 T02710136  RH  043%=      5-min Rain = 0
KSB1 120133Z 11007KT 27/14 A3012 RMK A01 T02710135  RH  043%=      5-min Rain = 0
KSB1 120134Z 11004KT 27/14 A3012 RMK A01 T02700135  RH  043%=      5-min Rain = 0
KSB1 120135Z 11005KT 27/14 A3012 RMK A01 T02710136  RH  044%=      5-min Rain = 0
KSB1 120136Z 11005KT 27/14 A3012 RMK A01 T02700137  RH  044%=      5-min Rain = 0
KSB1 120137Z 11006KT 27/14 A3012 RMK A01 T02700135  RH  043%=      5-min Rain = 0
KSB1 120138Z 10005KT 27/14 A3012 RMK A01 T02700135  RH  043%=      5-min Rain = 0
KSB1 120139Z 10006KT 27/14 A3012 RMK A01 T02700136  RH  044%=      5-min Rain = 0
KSB1 120140Z 09005KT 27/14 A3012 RMK A01 T02700136  RH  044%=      5-min Rain = 0
KSB1 120141Z 10005KT 27/14 A3012 RMK A01 T02690137  RH  044%=      5-min Rain = 0
KSB1 120142Z 10005KT 27/14 A3012 RMK A01 T02690137  RH  044%=      5-min Rain = 0
KSB1 120143Z 10005KT 27/14 A3012 RMK A01 T02690138  RH  044%=      5-min Rain = 0
KSB1 120144Z 11004KT 27/14 A3012 RMK A01 T02690138  RH  045%=      5-min Rain = 0
KSB1 120145Z 10005KT 27/14 A3012 RMK A01 T02680138  RH  045%=      5-min Rain = 0
KSB1 120146Z 10005KT 27/14 A3012 RMK A01 T02680138  RH  045%=      5-min Rain = 0
KSB1 120147Z 11004KT 27/14 A3012 RMK A01 T02670138  RH  045%=      5-min Rain = 0
KSB1 120148Z 11005KT 27/14 A3012 RMK A01 T02670137  RH  045%=      5-min Rain = 0
KSB1 120149Z 11005KT 27/14 A3012 RMK A01 T02670138  RH  045%=      5-min Rain = 0
KSB1 120150Z 11005KT 27/14 A3012 RMK A01 T02670137  RH  045%=      5-min Rain = 0
KSB1 120151Z 12004KT 27/14 A3012 RMK A01 T02670137  RH  045%=      5-min Rain = 0
KSB1 120152Z 12004KT 27/14 A3012 RMK A01 T02670138  RH  045%=      5-min Rain = 0
KSB1 120153Z 12004KT 27/14 A3012 RMK A01 T02660138  RH  045%=      5-min Rain = 0
KSB1 120154Z 12004KT 27/14 A3012 RMK A01 T02660139  RH  045%=      5-min Rain = 0
KSB1 120155Z 12004KT 27/14 A3012 RMK A01 T02660139  RH  046%=      5-min Rain = 0
KSB1 120156Z 13004KT 27/14 A3012 RMK A01 T02650139  RH  046%=      5-min Rain = 0
KSB1 120157Z 13004KT 27/14 A3012 RMK A01 T02650138  RH  046%=      5-min Rain = 0
KSB1 120158Z 14005KT 27/14 A3012 RMK A01 T02650138  RH  046%=      5-min Rain = 0
KSB1 120159Z 13005KT 26/14 A3012 RMK A01 T02640137  RH  046%=      5-min Rain = 0
KSB1 120200Z 13005KT 26/14 A3012 RMK A01 T02640138  RH  046%=      5-min Rain = 0
KSB1 120201Z 14005KT 26/14 A3012 RMK A01 T02640138  RH  046%=      5-min Rain = 0
KSB1 120202Z 14005KT 26/14 A3012 RMK A01 T02630138  RH  046%=      5-min Rain = 0
KSB1 120203Z 14005KT 26/14 A3012 RMK A01 T02630138  RH  046%=      5-min Rain = 0
KSB1 120204Z 14004KT 26/14 A3012 RMK A01 T02630139  RH  046%=      5-min Rain = 0
KSB1 120205Z 14005KT 26/14 A3012 RMK A01 T02630138  RH  046%=      5-min Rain = 0
KSB1 120206Z 14005KT 26/14 A3012 RMK A01 T02620138  RH  046%=      5-min Rain = 0
KSB1 120207Z 14005KT 26/14 A3012 RMK A01 T02620137  RH  046%=      5-min Rain = 0
KSB1 120208Z 14004KT 26/14 A3012 RMK A01 T02620137  RH  046%=      5-min Rain = 0
KSB1 120209Z 14004KT 26/14 A3012 RMK A01 T02620139  RH  047%=      5-min Rain = 0
KSB1 120210Z 14003KT 26/14 A3012 RMK A01 T02610139  RH  047%=      5-min Rain = 0
KSB1 120211Z 14004KT 26/14 A3012 RMK A01 T02610139  RH  047%=      5-min Rain = 0
KSB1 120212Z 14004KT 26/14 A3012 RMK A01 T02610139  RH  047%=      5-min Rain = 0
KSB1 120213Z 13004KT 26/14 A3012 RMK A01 T02600139  RH  047%=      5-min Rain = 0
KSB1 120214Z 14003KT 26/14 A3012 RMK A01 T02600139  RH  047%=      5-min Rain = 0
KSB1 120215Z 14003KT 26/14 A3012 RMK A01 T02600140  RH  047%=      5-min Rain = 0
KSB1 120216Z 14003KT 26/14 A3012 RMK A01 T02590140  RH  048%=      5-min Rain = 0
KSB1 120217Z 14003KT 26/14 A3012 RMK A01 T02590140  RH  048%=      5-min Rain = 0
KSB1 120218Z 14003KT 26/14 A3012 RMK A01 T02590141  RH  048%=      5-min Rain = 0
KSB1 120219Z 14003KT 26/14 A3012 RMK A01 T02580140  RH  048%=      5-min Rain = 0
KSB1 120220Z 14003KT 26/14 A3012 RMK A01 T02580141  RH  048%=      5-min Rain = 0
KSB1 120221Z 14003KT 26/14 A3012 RMK A01 T02570141  RH  049%=      5-min Rain = 0
KSB1 120222Z 14002KT 26/14 A3012 RMK A01 T02570141  RH  049%=      5-min Rain = 0
KSB1 120223Z 14002KT 26/14 A3012 RMK A01 T02570141  RH  049%=      5-min Rain = 0
KSB1 120224Z 14002KT 26/14 A3012 RMK A01 T02560141  RH  049%=      5-min Rain = 0
KSB1 120225Z 14002KT 26/14 A3012 RMK A01 T02560141  RH  049%=      5-min Rain = 0
KSB1 120226Z 14002KT 26/14 A3013 RMK A01 T02560141  RH  049%=      5-min Rain = 0
KSB1 120227Z 15002KT 26/14 A3013 RMK A01 T02550140  RH  049%=      5-min Rain = 0
KSB1 120228Z 15002KT 26/14 A3013 RMK A01 T02550140  RH  049%=      5-min Rain = 0
KSB1 120229Z 15002KT 26/14 A3013 RMK A01 T02550139  RH  048%=      5-min Rain = 0
KSB1 120230Z 15002KT 26/14 A3013 RMK A01 T02550140  RH  049%=      5-min Rain = 0
KSB1 120231Z 15002KT 26/14 A3013 RMK A01 T02550139  RH  049%=      5-min Rain = 0
KSB1 120232Z 16002KT 26/14 A3013 RMK A01 T02550139  RH  049%=      5-min Rain = 0
KSB1 120233Z 15002KT 26/14 A3013 RMK A01 T02550140  RH  049%=      5-min Rain = 0
KSB1 120234Z 15003KT 26/14 A3013 RMK A01 T02550140  RH  049%=      5-min Rain = 0
KSB1 120235Z 15003KT 26/14 A3013 RMK A01 T02550140  RH  049%=      5-min Rain = 0
KSB1 120236Z 15003KT 26/14 A3013 RMK A01 T02550142  RH  049%=      5-min Rain = 0
KSB1 120237Z 15003KT 26/14 A3013 RMK A01 T02550141  RH  049%=      5-min Rain = 0
KSB1 120238Z 15003KT 26/14 A3013 RMK A01 T02550141  RH  049%=      5-min Rain = 0
KSB1 120239Z 15003KT 26/14 A3013 RMK A01 T02550142  RH  050%=      5-min Rain = 0
KSB1 120240Z 15003KT 25/14 A3013 RMK A01 T02540141  RH  050%=      5-min Rain = 0
KSB1 120241Z 15003KT 25/14 A3013 RMK A01 T02540141  RH  050%=      5-min Rain = 0
KSB1 120242Z 15003KT 25/14 A3013 RMK A01 T02540141  RH  050%=      5-min Rain = 0
KSB1 120243Z 15004KT 25/14 A3013 RMK A01 T02540142  RH  050%=      5-min Rain = 0
KSB1 120244Z 15004KT 25/14 A3013 RMK A01 T02540143  RH  050%=      5-min Rain = 0
KSB1 120245Z 15003KT 25/14 A3013 RMK A01 T02540143  RH  050%=      5-min Rain = 0
KSB1 120246Z 14003KT 25/14 A3013 RMK A01 T02540144  RH  051%=      5-min Rain = 0
KSB1 120247Z 14003KT 25/14 A3013 RMK A01 T02530143  RH  050%=      5-min Rain = 0
KSB1 120248Z 14003KT 25/14 A3013 RMK A01 T02530144  RH  051%=      5-min Rain = 0
KSB1 120249Z 14003KT 25/14 A3013 RMK A01 T02530144  RH  051%=      5-min Rain = 0
KSB1 120250Z 15003KT 25/14 A3013 RMK A01 T02530143  RH  051%=      5-min Rain = 0
KSB1 120251Z 15003KT 25/14 A3013 RMK A01 T02530143  RH  051%=      5-min Rain = 0
KSB1 120252Z 15003KT 25/14 A3013 RMK A01 T02530144  RH  051%=      5-min Rain = 0
KSB1 120253Z 15003KT 25/14 A3013 RMK A01 T02530144  RH  051%=      5-min Rain = 0
KSB1 120254Z 15003KT 25/14 A3013 RMK A01 T02520143  RH  051%=      5-min Rain = 0
KSB1 120255Z 15003KT 25/14 A3013 RMK A01 T02530143  RH  051%=      5-min Rain = 0
KSB1 120256Z 15003KT 25/14 A3013 RMK A01 T02520144  RH  051%=      5-min Rain = 0
KSB1 120257Z 15003KT 25/14 A3013 RMK A01 T02520144  RH  051%=      5-min Rain = 0
KSB1 120258Z 15003KT 25/15 A3013 RMK A01 T02520145  RH  051%=      5-min Rain = 0
KSB1 120259Z 15003KT 25/14 A3013 RMK A01 T02520144  RH  051%=      5-min Rain = 0
KSB1 120300Z 15003KT 25/14 A3013 RMK A01 T02520144  RH  051%=      5-min Rain = 0
KSB1 120301Z 15003KT 25/15 A3013 RMK A01 T02510145  RH  052%=      5-min Rain = 0
KSB1 120302Z 15003KT 25/15 A3013 RMK A01 T02510145  RH  052%=      5-min Rain = 0
KSB1 120303Z 15003KT 25/15 A3013 RMK A01 T02510145  RH  052%=      5-min Rain = 0
KSB1 120304Z 14003KT 25/15 A3014 RMK A01 T02510145  RH  052%=      5-min Rain = 0
KSB1 120305Z 14004KT 25/15 A3014 RMK A01 T02500145  RH  052%=      5-min Rain = 0
KSB1 120306Z 14004KT 25/15 A3014 RMK A01 T02510145  RH  052%=      5-min Rain = 0
KSB1 120307Z 14004KT 25/15 A3014 RMK A01 T02500145  RH  052%=      5-min Rain = 0
KSB1 120308Z 15003KT 25/15 A3014 RMK A01 T02500146  RH  052%=      5-min Rain = 0
KSB1 120309Z 15004KT 25/15 A3014 RMK A01 T02500146  RH  052%=      5-min Rain = 0
KSB1 120310Z 15004KT 25/15 A3014 RMK A01 T02490146  RH  053%=      5-min Rain = 0
KSB1 120311Z 15004KT 25/15 A3014 RMK A01 T02490147  RH  053%=      5-min Rain = 0
KSB1 120312Z 15004KT 25/15 A3014 RMK A01 T02490148  RH  054%=      5-min Rain = 0
KSB1 120313Z 16004KT 25/15 A3014 RMK A01 T02480149  RH  054%=      5-min Rain = 0
KSB1 120314Z 16004KT 25/15 A3014 RMK A01 T02470150  RH  054%=      5-min Rain = 0
KSB1 120315Z 16004KT 25/15 A3014 RMK A01 T02470150  RH  055%=      5-min Rain = 0
KSB1 120316Z 16004KT 25/15 A3014 RMK A01 T02470151  RH  055%=      5-min Rain = 0
KSB1 120317Z 16004KT 25/15 A3014 RMK A01 T02460151  RH  055%=      5-min Rain = 0
KSB1 120318Z 16004KT 25/15 A3015 RMK A01 T02450149  RH  055%=      5-min Rain = 0
KSB1 120319Z 17003KT 25/15 A3015 RMK A01 T02460151  RH  055%=      5-min Rain = 0
KSB1 120320Z 19002KT 25/15 A3015 RMK A01 T02450150  RH  055%=      5-min Rain = 0
KSB1 120321Z 18001KT 25/15 A3015 RMK A01 T02450148  RH  055%=      5-min Rain = 0
KSB1 120322Z 18001KT 25/15 A3015 RMK A01 T02450147  RH  054%=      5-min Rain = 0
KSB1 120323Z 20001KT 25/15 A3015 RMK A01 T02450148  RH  055%=      5-min Rain = 0
KSB1 120324Z 20001KT 25/15 A3015 RMK A01 T02460149  RH  055%=      5-min Rain = 0
KSB1 120325Z 20001KT 25/15 A3015 RMK A01 T02460149  RH  055%=      5-min Rain = 0
KSB1 120326Z 19001KT 25/15 A3015 RMK A01 T02460149  RH  055%=      5-min Rain = 0
KSB1 120327Z 20001KT 25/15 A3015 RMK A01 T02460148  RH  055%=      5-min Rain = 0
KSB1 120328Z 21000KT 25/15 A3015 RMK A01 T02460149  RH  055%=      5-min Rain = 0
KSB1 120329Z 22001KT 25/15 A3015 RMK A01 T02460147  RH  054%=      5-min Rain = 0
KSB1 120330Z 23001KT 25/15 A3015 RMK A01 T02470146  RH  053%=      5-min Rain = 0
KSB1 120331Z 24001KT 25/15 A3015 RMK A01 T02470146  RH  053%=      5-min Rain = 0
KSB1 120332Z 25002KT 25/15 A3015 RMK A01 T02480147  RH  053%=      5-min Rain = 0
KSB1 120333Z 25001KT 25/15 A3015 RMK A01 T02480147  RH  053%=      5-min Rain = 0
KSB1 120334Z 25002KT 25/15 A3015 RMK A01 T02480147  RH  053%=      5-min Rain = 0
KSB1 120335Z 25001KT 25/15 A3015 RMK A01 T02480147  RH  053%=      5-min Rain = 0
KSB1 120336Z 26002KT 25/15 A3016 RMK A01 T02480147  RH  053%=      5-min Rain = 0
KSB1 120337Z 26002KT 25/15 A3016 RMK A01 T02480147  RH  053%=      5-min Rain = 0
KSB1 120338Z 26002KT 25/15 A3016 RMK A01 T02480146  RH  053%=      5-min Rain = 0
KSB1 120339Z 26002KT 25/15 A3016 RMK A01 T02490146  RH  053%=      5-min Rain = 0
KSB1 120340Z 25002KT 25/14 A3016 RMK A01 T02490144  RH  052%=      5-min Rain = 0
KSB1 120341Z 26002KT 25/14 A3016 RMK A01 T02500144  RH  052%=      5-min Rain = 0
KSB1 120342Z 26001KT 25/15 A3016 RMK A01 T02500145  RH  052%=      5-min Rain = 0
KSB1 120343Z 26001KT 25/15 A3016 RMK A01 T02510145  RH  052%=      5-min Rain = 0
KSB1 120344Z 27001KT 25/14 A3016 RMK A01 T02510144  RH  052%=      5-min Rain = 0
KSB1 120345Z 26001KT 25/14 A3016 RMK A01 T02510144  RH  051%=      5-min Rain = 0
KSB1 120346Z 27001KT 25/14 A3016 RMK A01 T02520141  RH  050%=      5-min Rain = 0
KSB1 120347Z 26000KT 25/14 A3016 RMK A01 T02520141  RH  050%=      5-min Rain = 0
KSB1 120348Z 26000KT 25/14 A3016 RMK A01 T02530141  RH  050%=      5-min Rain = 0
KSB1 120349Z 26000KT 25/14 A3016 RMK A01 T02530142  RH  050%=      5-min Rain = 0
KSB1 120350Z 27001KT 25/14 A3016 RMK A01 T02540142  RH  050%=      5-min Rain = 0
KSB1 120351Z 27001KT 25/14 A3016 RMK A01 T02540143  RH  050%=      5-min Rain = 0
KSB1 120352Z 27001KT 25/14 A3016 RMK A01 T02540142  RH  050%=      5-min Rain = 0
KSB1 120353Z 27001KT 25/14 A3017 RMK A01 T02540142  RH  050%=      5-min Rain = 0
KSB1 120354Z 27001KT 25/14 A3017 RMK A01 T02540142  RH  050%=      5-min Rain = 0
KSB1 120355Z 27000KT 25/14 A3017 RMK A01 T02540141  RH  050%=      5-min Rain = 0
KSB1 120356Z 00000KT 25/14 A3017 RMK A01 T02540141  RH  050%=      5-min Rain = 0
KSB1 120357Z 27000KT 25/14 A3017 RMK A01 T02540142  RH  050%=      5-min Rain = 0
KSB1 120358Z 27000KT 25/14 A3017 RMK A01 T02540143  RH  050%=      5-min Rain = 0
KSB1 120359Z 27000KT 25/14 A3017 RMK A01 T02540144  RH  051%=      5-min Rain = 0
KSB1 120400Z 27000KT 25/14 A3017 RMK A01 T02540142  RH  050%=      5-min Rain = 0
KSB1 120401Z 00000KT 25/14 A3017 RMK A01 T02540142  RH  050%=      5-min Rain = 0
KSB1 120402Z 00000KT 25/14 A3017 RMK A01 T02540139  RH  049%=      5-min Rain = 0
KSB1 120403Z 00000KT 25/14 A3017 RMK A01 T02540139  RH  049%=      5-min Rain = 0
KSB1 120404Z 00000KT 25/14 A3017 RMK A01 T02540141  RH  049%=      5-min Rain = 0
KSB1 120405Z 00000KT 25/14 A3017 RMK A01 T02540141  RH  049%=      5-min Rain = 0
KSB1 120406Z 00000KT 25/14 A3017 RMK A01 T02540137  RH  048%=      5-min Rain = 0
KSB1 120407Z 00000KT 26/14 A3017 RMK A01 T02550136  RH  048%=      5-min Rain = 0
KSB1 120408Z 00000KT 26/14 A3017 RMK A01 T02560136  RH  047%=      5-min Rain = 0
KSB1 120409Z 00000KT 26/14 A3017 RMK A01 T02560135  RH  047%=      5-min Rain = 0
KSB1 120410Z 00000KT 26/14 A3017 RMK A01 T02560135  RH  047%=      5-min Rain = 0
KSB1 120411Z 00000KT 26/13 A3017 RMK A01 T02570134  RH  047%=      5-min Rain = 0
KSB1 120412Z 00000KT 26/14 A3017 RMK A01 T02570135  RH  047%=      5-min Rain = 0
KSB1 120413Z 00000KT 26/14 A3017 RMK A01 T02570136  RH  047%=      5-min Rain = 0
KSB1 120414Z 00000KT 26/14 A3017 RMK A01 T02560138  RH  048%=      5-min Rain = 0
KSB1 120415Z 00000KT 26/14 A3017 RMK A01 T02570139  RH  048%=      5-min Rain = 0
KSB1 120416Z 34000KT 26/14 A3017 RMK A01 T02570141  RH  049%=      5-min Rain = 0
KSB1 120417Z 33002KT 26/14 A3017 RMK A01 T02560143  RH  049%=      5-min Rain = 0
KSB1 120418Z 35001KT 26/15 A3017 RMK A01 T02560145  RH  050%=      5-min Rain = 0
KSB1 120419Z 34000KT 26/14 A3017 RMK A01 T02550143  RH  050%=      5-min Rain = 0
KSB1 120420Z 35000KT 25/14 A3017 RMK A01 T02540144  RH  050%=      5-min Rain = 0
KSB1 120421Z 00000KT 25/14 A3017 RMK A01 T02540143  RH  050%=      5-min Rain = 0
KSB1 120422Z 00000KT 25/14 A3017 RMK A01 T02530142  RH  050%=      5-min Rain = 0
KSB1 120423Z 00000KT 25/14 A3017 RMK A01 T02530141  RH  050%=      5-min Rain = 0
KSB1 120424Z 00000KT 25/14 A3017 RMK A01 T02530139  RH  049%=      5-min Rain = 0
KSB1 120425Z 00000KT 25/14 A3017 RMK A01 T02540137  RH  048%=      5-min Rain = 0
KSB1 120426Z 00000KT 25/14 A3017 RMK A01 T02540137  RH  048%=      5-min Rain = 0
KSB1 120427Z 00000KT 25/14 A3017 RMK A01 T02540140  RH  049%=      5-min Rain = 0
KSB1 120428Z 00000KT 26/15 A3017 RMK A01 T02550150  RH  052%=      5-min Rain = 0
KSB1 120429Z 00000KT 25/15 A3017 RMK A01 T02540149  RH  052%=      5-min Rain = 0
KSB1 120430Z 00000KT 25/15 A3018 RMK A01 T02530149  RH  052%=      5-min Rain = 0
KSB1 120431Z 00000KT 25/15 A3018 RMK A01 T02520146  RH  052%=      5-min Rain = 0
KSB1 120432Z 00000KT 25/15 A3018 RMK A01 T02520145  RH  052%=      5-min Rain = 0
KSB1 120433Z 00000KT 25/15 A3018 RMK A01 T02510150  RH  053%=      5-min Rain = 0
KSB1 120434Z 00000KT 25/15 A3018 RMK A01 T02510152  RH  054%=      5-min Rain = 0
KSB1 120435Z 00000KT 25/16 A3018 RMK A01 T02500156  RH  056%=      5-min Rain = 0
KSB1 120436Z 26000KT 25/16 A3018 RMK A01 T02490159  RH  057%=      5-min Rain = 0
KSB1 120437Z 27001KT 25/16 A3018 RMK A01 T02480159  RH  058%=      5-min Rain = 0
KSB1 120438Z 26002KT 25/16 A3018 RMK A01 T02470157  RH  057%=      5-min Rain = 0
KSB1 120439Z 25002KT 25/16 A3018 RMK A01 T02460155  RH  057%=      5-min Rain = 0
KSB1 120440Z 25002KT 25/16 A3018 RMK A01 T02460155  RH  057%=      5-min Rain = 0
KSB1 120441Z 27002KT 25/16 A3018 RMK A01 T02460155  RH  057%=      5-min Rain = 0
KSB1 120442Z 27002KT 25/15 A3018 RMK A01 T02460153  RH  056%=      5-min Rain = 0
KSB1 120443Z 28002KT 25/15 A3018 RMK A01 T02470153  RH  056%=      5-min Rain = 0
KSB1 120444Z 28003KT 25/15 A3018 RMK A01 T02470152  RH  055%=      5-min Rain = 0
KSB1 120445Z 28003KT 25/15 A3018 RMK A01 T02480151  RH  055%=      5-min Rain = 0
KSB1 120446Z 28003KT 25/15 A3018 RMK A01 T02480150  RH  054%=      5-min Rain = 0
KSB1 120447Z 28004KT 25/15 A3018 RMK A01 T02490151  RH  054%=      5-min Rain = 0
KSB1 120448Z 28004KT 25/15 A3018 RMK A01 T02490150  RH  054%=      5-min Rain = 0
KSB1 120449Z 29004KT 25/15 A3018 RMK A01 T02490150  RH  054%=      5-min Rain = 0
KSB1 120450Z 29003KT 25/15 A3018 RMK A01 T02490150  RH  054%=      5-min Rain = 0
KSB1 120451Z 29003KT 25/15 A3018 RMK A01 T02500148  RH  053%=      5-min Rain = 0
KSB1 120452Z 29003KT 25/15 A3018 RMK A01 T02500147  RH  053%=      5-min Rain = 0
KSB1 120453Z 30002KT 25/15 A3018 RMK A01 T02510146  RH  052%=      5-min Rain = 0
KSB1 120454Z 31002KT 25/15 A3018 RMK A01 T02510146  RH  052%=      5-min Rain = 0
KSB1 120455Z 33001KT 25/15 A3018 RMK A01 T02510147  RH  052%=      5-min Rain = 0
KSB1 120456Z 33001KT 25/15 A3018 RMK A01 T02510151  RH  054%=      5-min Rain = 0
KSB1 120457Z 33001KT 25/15 A3018 RMK A01 T02510151  RH  054%=      5-min Rain = 0
KSB1 120458Z 35002KT 25/15 A3018 RMK A01 T02510153  RH  055%=      5-min Rain = 0
KSB1 120459Z 35002KT 25/15 A3018 RMK A01 T02500154  RH  055%=      5-min Rain = 0
KSB1 120500Z 35002KT 25/16 A3018 RMK A01 T02490155  RH  056%=      5-min Rain = 0

Page generated in 0.0464 seconds.